<?xml version="1.0" encoding="UTF-8" standalone="no" ?>
<gpx xmlns="http://www.topografix.com/GPX/1/1" xmlns:xsi="http://www.w3.org/2001/XMLSchema-instance" xsi:schemaLocation="http://www.topografix.com/GPX/1/1 http://www.topografix.com/GPX/1/1/gpx.xsd" version="1.1" creator="VisuGPX - https://www.visugpx.com">
  <metadata>
    <name>Tracé actuel: 28 MAI 2020 13:03</name>
    <desc><![CDATA[reprise après quatre d'arret]]></desc>
  </metadata>
  <trk>
    <name><![CDATA[Tracé actuel: 28 MAI 2020 13:03]]></name>
    <trkseg>
      <trkpt lat="49.63459" lon="4.98022">
        <ele>179.42</ele>
        <time>2020-05-28T11:03:52Z</time>
      </trkpt>
      <trkpt lat="49.6346" lon="4.98021">
        <ele>180.87</ele>
        <time>2020-05-28T11:04:09Z</time>
      </trkpt>
      <trkpt lat="49.63462" lon="4.98025">
        <ele>180.87</ele>
        <time>2020-05-28T11:04:30Z</time>
      </trkpt>
      <trkpt lat="49.63459" lon="4.98026">
        <ele>181.35</ele>
        <time>2020-05-28T11:04:49Z</time>
      </trkpt>
      <trkpt lat="49.63444" lon="4.98052">
        <ele>183.75</ele>
        <time>2020-05-28T11:05:09Z</time>
      </trkpt>
      <trkpt lat="49.63443" lon="4.98052">
        <ele>185.67</ele>
        <time>2020-05-28T11:05:20Z</time>
      </trkpt>
      <trkpt lat="49.63452" lon="4.98066">
        <ele>189.04</ele>
        <time>2020-05-28T11:05:32Z</time>
      </trkpt>
      <trkpt lat="49.6346" lon="4.98076">
        <ele>190</ele>
        <time>2020-05-28T11:05:45Z</time>
      </trkpt>
      <trkpt lat="49.63468" lon="4.9809">
        <ele>186.63</ele>
        <time>2020-05-28T11:05:58Z</time>
      </trkpt>
      <trkpt lat="49.63472" lon="4.981">
        <ele>189.04</ele>
        <time>2020-05-28T11:06:06Z</time>
      </trkpt>
      <trkpt lat="49.63481" lon="4.98113">
        <ele>193.36</ele>
        <time>2020-05-28T11:06:20Z</time>
      </trkpt>
      <trkpt lat="49.63489" lon="4.98125">
        <ele>191.44</ele>
        <time>2020-05-28T11:06:31Z</time>
      </trkpt>
      <trkpt lat="49.63491" lon="4.9813">
        <ele>190.96</ele>
        <time>2020-05-28T11:06:36Z</time>
      </trkpt>
      <trkpt lat="49.63491" lon="4.98138">
        <ele>188.56</ele>
        <time>2020-05-28T11:06:42Z</time>
      </trkpt>
      <trkpt lat="49.63487" lon="4.98143">
        <ele>188.08</ele>
        <time>2020-05-28T11:06:48Z</time>
      </trkpt>
      <trkpt lat="49.63482" lon="4.98149">
        <ele>188.08</ele>
        <time>2020-05-28T11:06:54Z</time>
      </trkpt>
      <trkpt lat="49.63476" lon="4.98163">
        <ele>189.52</ele>
        <time>2020-05-28T11:07:06Z</time>
      </trkpt>
      <trkpt lat="49.63473" lon="4.98172">
        <ele>190</ele>
        <time>2020-05-28T11:07:13Z</time>
      </trkpt>
      <trkpt lat="49.63471" lon="4.98181">
        <ele>190.48</ele>
        <time>2020-05-28T11:07:20Z</time>
      </trkpt>
      <trkpt lat="49.63466" lon="4.98193">
        <ele>190.48</ele>
        <time>2020-05-28T11:07:31Z</time>
      </trkpt>
      <trkpt lat="49.63461" lon="4.98209">
        <ele>191.92</ele>
        <time>2020-05-28T11:07:42Z</time>
      </trkpt>
      <trkpt lat="49.63455" lon="4.98222">
        <ele>192.4</ele>
        <time>2020-05-28T11:07:52Z</time>
      </trkpt>
      <trkpt lat="49.63454" lon="4.98224">
        <ele>192.88</ele>
        <time>2020-05-28T11:07:55Z</time>
      </trkpt>
      <trkpt lat="49.63447" lon="4.98234">
        <ele>193.36</ele>
        <time>2020-05-28T11:08:06Z</time>
      </trkpt>
      <trkpt lat="49.63444" lon="4.98246">
        <ele>193.36</ele>
        <time>2020-05-28T11:08:16Z</time>
      </trkpt>
      <trkpt lat="49.63436" lon="4.98257">
        <ele>193.84</ele>
        <time>2020-05-28T11:08:27Z</time>
      </trkpt>
      <trkpt lat="49.63431" lon="4.98263">
        <ele>193.84</ele>
        <time>2020-05-28T11:08:33Z</time>
      </trkpt>
      <trkpt lat="49.63424" lon="4.98273">
        <ele>195.77</ele>
        <time>2020-05-28T11:08:43Z</time>
      </trkpt>
      <trkpt lat="49.63416" lon="4.98284">
        <ele>198.65</ele>
        <time>2020-05-28T11:08:55Z</time>
      </trkpt>
      <trkpt lat="49.6341" lon="4.98296">
        <ele>201.05</ele>
        <time>2020-05-28T11:09:07Z</time>
      </trkpt>
      <trkpt lat="49.63406" lon="4.983">
        <ele>202.01</ele>
        <time>2020-05-28T11:09:12Z</time>
      </trkpt>
      <trkpt lat="49.63398" lon="4.98306">
        <ele>203.94</ele>
        <time>2020-05-28T11:09:22Z</time>
      </trkpt>
      <trkpt lat="49.63386" lon="4.98315">
        <ele>205.38</ele>
        <time>2020-05-28T11:09:35Z</time>
      </trkpt>
      <trkpt lat="49.63376" lon="4.98323">
        <ele>205.86</ele>
        <time>2020-05-28T11:09:46Z</time>
      </trkpt>
      <trkpt lat="49.6337" lon="4.98327">
        <ele>205.38</ele>
        <time>2020-05-28T11:09:54Z</time>
      </trkpt>
      <trkpt lat="49.63363" lon="4.98333">
        <ele>206.34</ele>
        <time>2020-05-28T11:10:04Z</time>
      </trkpt>
      <trkpt lat="49.63356" lon="4.98341">
        <ele>208.26</ele>
        <time>2020-05-28T11:10:14Z</time>
      </trkpt>
      <trkpt lat="49.63352" lon="4.98345">
        <ele>209.7</ele>
        <time>2020-05-28T11:10:19Z</time>
      </trkpt>
      <trkpt lat="49.6334" lon="4.9835">
        <ele>211.15</ele>
        <time>2020-05-28T11:10:31Z</time>
      </trkpt>
      <trkpt lat="49.63331" lon="4.98348">
        <ele>212.59</ele>
        <time>2020-05-28T11:10:42Z</time>
      </trkpt>
      <trkpt lat="49.63323" lon="4.98347">
        <ele>214.51</ele>
        <time>2020-05-28T11:10:53Z</time>
      </trkpt>
      <trkpt lat="49.63313" lon="4.98345">
        <ele>216.91</ele>
        <time>2020-05-28T11:11:05Z</time>
      </trkpt>
      <trkpt lat="49.63302" lon="4.98342">
        <ele>217.88</ele>
        <time>2020-05-28T11:11:17Z</time>
      </trkpt>
      <trkpt lat="49.633" lon="4.98342">
        <ele>218.36</ele>
        <time>2020-05-28T11:11:20Z</time>
      </trkpt>
      <trkpt lat="49.63287" lon="4.98345">
        <ele>216.91</ele>
        <time>2020-05-28T11:11:32Z</time>
      </trkpt>
      <trkpt lat="49.63285" lon="4.98346">
        <ele>216.91</ele>
        <time>2020-05-28T11:11:34Z</time>
      </trkpt>
      <trkpt lat="49.63283" lon="4.98346">
        <ele>216.91</ele>
        <time>2020-05-28T11:11:36Z</time>
      </trkpt>
      <trkpt lat="49.63271" lon="4.9835">
        <ele>216.43</ele>
        <time>2020-05-28T11:11:49Z</time>
      </trkpt>
      <trkpt lat="49.6327" lon="4.98349">
        <ele>216.43</ele>
        <time>2020-05-28T11:11:51Z</time>
      </trkpt>
      <trkpt lat="49.63261" lon="4.98346">
        <ele>216.43</ele>
        <time>2020-05-28T11:12:01Z</time>
      </trkpt>
      <trkpt lat="49.63248" lon="4.98337">
        <ele>218.84</ele>
        <time>2020-05-28T11:12:14Z</time>
      </trkpt>
      <trkpt lat="49.63236" lon="4.98337">
        <ele>219.32</ele>
        <time>2020-05-28T11:12:27Z</time>
      </trkpt>
      <trkpt lat="49.63223" lon="4.98337">
        <ele>220.28</ele>
        <time>2020-05-28T11:12:40Z</time>
      </trkpt>
      <trkpt lat="49.6321" lon="4.98338">
        <ele>220.28</ele>
        <time>2020-05-28T11:12:52Z</time>
      </trkpt>
      <trkpt lat="49.632" lon="4.98337">
        <ele>220.76</ele>
        <time>2020-05-28T11:13:03Z</time>
      </trkpt>
      <trkpt lat="49.6319" lon="4.98336">
        <ele>221.72</ele>
        <time>2020-05-28T11:13:14Z</time>
      </trkpt>
      <trkpt lat="49.63177" lon="4.98332">
        <ele>222.68</ele>
        <time>2020-05-28T11:13:27Z</time>
      </trkpt>
      <trkpt lat="49.63166" lon="4.98332">
        <ele>223.64</ele>
        <time>2020-05-28T11:13:40Z</time>
      </trkpt>
      <trkpt lat="49.6316" lon="4.9833">
        <ele>222.68</ele>
        <time>2020-05-28T11:13:48Z</time>
      </trkpt>
      <trkpt lat="49.63146" lon="4.98324">
        <ele>224.12</ele>
        <time>2020-05-28T11:14:01Z</time>
      </trkpt>
      <trkpt lat="49.63135" lon="4.98329">
        <ele>223.64</ele>
        <time>2020-05-28T11:14:14Z</time>
      </trkpt>
      <trkpt lat="49.6313" lon="4.98329">
        <ele>223.16</ele>
        <time>2020-05-28T11:14:20Z</time>
      </trkpt>
      <trkpt lat="49.63119" lon="4.98329">
        <ele>223.64</ele>
        <time>2020-05-28T11:14:32Z</time>
      </trkpt>
      <trkpt lat="49.63104" lon="4.98327">
        <ele>226.53</ele>
        <time>2020-05-28T11:14:46Z</time>
      </trkpt>
      <trkpt lat="49.63094" lon="4.98328">
        <ele>229.41</ele>
        <time>2020-05-28T11:14:58Z</time>
      </trkpt>
      <trkpt lat="49.63083" lon="4.98327">
        <ele>230.37</ele>
        <time>2020-05-28T11:15:11Z</time>
      </trkpt>
      <trkpt lat="49.63068" lon="4.98322">
        <ele>229.41</ele>
        <time>2020-05-28T11:15:24Z</time>
      </trkpt>
      <trkpt lat="49.63061" lon="4.9832">
        <ele>228.93</ele>
        <time>2020-05-28T11:15:32Z</time>
      </trkpt>
      <trkpt lat="49.6306" lon="4.98319">
        <ele>229.41</ele>
        <time>2020-05-28T11:15:34Z</time>
      </trkpt>
      <trkpt lat="49.63047" lon="4.9832">
        <ele>231.33</ele>
        <time>2020-05-28T11:15:48Z</time>
      </trkpt>
      <trkpt lat="49.63036" lon="4.98318">
        <ele>233.26</ele>
        <time>2020-05-28T11:16:00Z</time>
      </trkpt>
      <trkpt lat="49.63026" lon="4.98313">
        <ele>235.18</ele>
        <time>2020-05-28T11:16:12Z</time>
      </trkpt>
      <trkpt lat="49.63022" lon="4.98315">
        <ele>235.66</ele>
        <time>2020-05-28T11:16:17Z</time>
      </trkpt>
      <trkpt lat="49.63016" lon="4.98315">
        <ele>235.66</ele>
        <time>2020-05-28T11:16:23Z</time>
      </trkpt>
      <trkpt lat="49.63007" lon="4.98316">
        <ele>237.1</ele>
        <time>2020-05-28T11:16:34Z</time>
      </trkpt>
      <trkpt lat="49.62994" lon="4.98314">
        <ele>238.54</ele>
        <time>2020-05-28T11:16:46Z</time>
      </trkpt>
      <trkpt lat="49.62983" lon="4.98314">
        <ele>238.54</ele>
        <time>2020-05-28T11:16:59Z</time>
      </trkpt>
      <trkpt lat="49.6297" lon="4.98315">
        <ele>236.62</ele>
        <time>2020-05-28T11:17:12Z</time>
      </trkpt>
      <trkpt lat="49.62957" lon="4.98316">
        <ele>236.14</ele>
        <time>2020-05-28T11:17:25Z</time>
      </trkpt>
      <trkpt lat="49.62943" lon="4.98315">
        <ele>235.66</ele>
        <time>2020-05-28T11:17:38Z</time>
      </trkpt>
      <trkpt lat="49.62936" lon="4.98315">
        <ele>236.62</ele>
        <time>2020-05-28T11:17:46Z</time>
      </trkpt>
      <trkpt lat="49.62925" lon="4.98324">
        <ele>237.58</ele>
        <time>2020-05-28T11:17:58Z</time>
      </trkpt>
      <trkpt lat="49.62916" lon="4.98325">
        <ele>237.58</ele>
        <time>2020-05-28T11:18:08Z</time>
      </trkpt>
      <trkpt lat="49.62907" lon="4.98329">
        <ele>238.54</ele>
        <time>2020-05-28T11:18:17Z</time>
      </trkpt>
      <trkpt lat="49.62899" lon="4.98332">
        <ele>239.51</ele>
        <time>2020-05-28T11:18:27Z</time>
      </trkpt>
      <trkpt lat="49.62888" lon="4.98334">
        <ele>240.47</ele>
        <time>2020-05-28T11:18:39Z</time>
      </trkpt>
      <trkpt lat="49.62876" lon="4.98335">
        <ele>240.95</ele>
        <time>2020-05-28T11:18:51Z</time>
      </trkpt>
      <trkpt lat="49.62874" lon="4.98335">
        <ele>240.95</ele>
        <time>2020-05-28T11:18:54Z</time>
      </trkpt>
      <trkpt lat="49.62863" lon="4.9834">
        <ele>240.47</ele>
        <time>2020-05-28T11:19:06Z</time>
      </trkpt>
      <trkpt lat="49.62851" lon="4.98341">
        <ele>241.43</ele>
        <time>2020-05-28T11:19:20Z</time>
      </trkpt>
      <trkpt lat="49.62839" lon="4.98345">
        <ele>243.35</ele>
        <time>2020-05-28T11:19:32Z</time>
      </trkpt>
      <trkpt lat="49.62835" lon="4.9835">
        <ele>243.83</ele>
        <time>2020-05-28T11:19:38Z</time>
      </trkpt>
      <trkpt lat="49.62823" lon="4.98361">
        <ele>244.31</ele>
        <time>2020-05-28T11:19:53Z</time>
      </trkpt>
      <trkpt lat="49.62815" lon="4.98371">
        <ele>245.75</ele>
        <time>2020-05-28T11:20:04Z</time>
      </trkpt>
      <trkpt lat="49.62804" lon="4.98382">
        <ele>249.6</ele>
        <time>2020-05-28T11:20:18Z</time>
      </trkpt>
      <trkpt lat="49.62801" lon="4.98383">
        <ele>250.08</ele>
        <time>2020-05-28T11:20:21Z</time>
      </trkpt>
      <trkpt lat="49.6279" lon="4.98392">
        <ele>251.04</ele>
        <time>2020-05-28T11:20:36Z</time>
      </trkpt>
      <trkpt lat="49.62783" lon="4.98397">
        <ele>252.48</ele>
        <time>2020-05-28T11:20:50Z</time>
      </trkpt>
      <trkpt lat="49.62778" lon="4.984">
        <ele>253.93</ele>
        <time>2020-05-28T11:20:56Z</time>
      </trkpt>
      <trkpt lat="49.62765" lon="4.98405">
        <ele>252.48</ele>
        <time>2020-05-28T11:21:08Z</time>
      </trkpt>
      <trkpt lat="49.62752" lon="4.98418">
        <ele>253.44</ele>
        <time>2020-05-28T11:21:22Z</time>
      </trkpt>
      <trkpt lat="49.62746" lon="4.98425">
        <ele>253.93</ele>
        <time>2020-05-28T11:21:31Z</time>
      </trkpt>
      <trkpt lat="49.62733" lon="4.98435">
        <ele>254.41</ele>
        <time>2020-05-28T11:21:45Z</time>
      </trkpt>
      <trkpt lat="49.62722" lon="4.98443">
        <ele>255.85</ele>
        <time>2020-05-28T11:21:58Z</time>
      </trkpt>
      <trkpt lat="49.62711" lon="4.98454">
        <ele>258.73</ele>
        <time>2020-05-28T11:22:10Z</time>
      </trkpt>
      <trkpt lat="49.62703" lon="4.98461">
        <ele>262.1</ele>
        <time>2020-05-28T11:22:22Z</time>
      </trkpt>
      <trkpt lat="49.6269" lon="4.9847">
        <ele>261.14</ele>
        <time>2020-05-28T11:22:37Z</time>
      </trkpt>
      <trkpt lat="49.6268" lon="4.98477">
        <ele>262.1</ele>
        <time>2020-05-28T11:22:50Z</time>
      </trkpt>
      <trkpt lat="49.62669" lon="4.98489">
        <ele>263.06</ele>
        <time>2020-05-28T11:23:06Z</time>
      </trkpt>
      <trkpt lat="49.62655" lon="4.98501">
        <ele>264.5</ele>
        <time>2020-05-28T11:23:24Z</time>
      </trkpt>
      <trkpt lat="49.6264" lon="4.98512">
        <ele>264.5</ele>
        <time>2020-05-28T11:23:41Z</time>
      </trkpt>
      <trkpt lat="49.62626" lon="4.98527">
        <ele>264.02</ele>
        <time>2020-05-28T11:24:00Z</time>
      </trkpt>
      <trkpt lat="49.6262" lon="4.98531">
        <ele>263.54</ele>
        <time>2020-05-28T11:24:05Z</time>
      </trkpt>
      <trkpt lat="49.62609" lon="4.98542">
        <ele>260.17</ele>
        <time>2020-05-28T11:24:20Z</time>
      </trkpt>
      <trkpt lat="49.62595" lon="4.98552">
        <ele>258.25</ele>
        <time>2020-05-28T11:24:36Z</time>
      </trkpt>
      <trkpt lat="49.62584" lon="4.98563">
        <ele>259.69</ele>
        <time>2020-05-28T11:24:52Z</time>
      </trkpt>
      <trkpt lat="49.62576" lon="4.98566">
        <ele>261.14</ele>
        <time>2020-05-28T11:24:59Z</time>
      </trkpt>
      <trkpt lat="49.62566" lon="4.98576">
        <ele>262.58</ele>
        <time>2020-05-28T11:25:11Z</time>
      </trkpt>
      <trkpt lat="49.62556" lon="4.98582">
        <ele>262.1</ele>
        <time>2020-05-28T11:25:22Z</time>
      </trkpt>
      <trkpt lat="49.62552" lon="4.98578">
        <ele>262.58</ele>
        <time>2020-05-28T11:25:30Z</time>
      </trkpt>
      <trkpt lat="49.62552" lon="4.98564">
        <ele>260.65</ele>
        <time>2020-05-28T11:25:42Z</time>
      </trkpt>
      <trkpt lat="49.62545" lon="4.98552">
        <ele>259.69</ele>
        <time>2020-05-28T11:25:54Z</time>
      </trkpt>
      <trkpt lat="49.62533" lon="4.9856">
        <ele>259.69</ele>
        <time>2020-05-28T11:26:06Z</time>
      </trkpt>
      <trkpt lat="49.62532" lon="4.9856">
        <ele>259.69</ele>
        <time>2020-05-28T11:26:08Z</time>
      </trkpt>
      <trkpt lat="49.62528" lon="4.9856">
        <ele>260.17</ele>
        <time>2020-05-28T11:26:11Z</time>
      </trkpt>
      <trkpt lat="49.62525" lon="4.98561">
        <ele>260.65</ele>
        <time>2020-05-28T11:26:14Z</time>
      </trkpt>
      <trkpt lat="49.62511" lon="4.98559">
        <ele>261.62</ele>
        <time>2020-05-28T11:26:27Z</time>
      </trkpt>
      <trkpt lat="49.62502" lon="4.98556">
        <ele>262.58</ele>
        <time>2020-05-28T11:26:38Z</time>
      </trkpt>
      <trkpt lat="49.62501" lon="4.98555">
        <ele>262.58</ele>
        <time>2020-05-28T11:26:39Z</time>
      </trkpt>
      <trkpt lat="49.62489" lon="4.98548">
        <ele>262.58</ele>
        <time>2020-05-28T11:26:52Z</time>
      </trkpt>
      <trkpt lat="49.62478" lon="4.98539">
        <ele>262.1</ele>
        <time>2020-05-28T11:27:03Z</time>
      </trkpt>
      <trkpt lat="49.62469" lon="4.9853">
        <ele>262.58</ele>
        <time>2020-05-28T11:27:15Z</time>
      </trkpt>
      <trkpt lat="49.62457" lon="4.98521">
        <ele>263.06</ele>
        <time>2020-05-28T11:27:28Z</time>
      </trkpt>
      <trkpt lat="49.62448" lon="4.98514">
        <ele>263.06</ele>
        <time>2020-05-28T11:27:39Z</time>
      </trkpt>
      <trkpt lat="49.62437" lon="4.98504">
        <ele>264.5</ele>
        <time>2020-05-28T11:27:51Z</time>
      </trkpt>
      <trkpt lat="49.62426" lon="4.98497">
        <ele>266.42</ele>
        <time>2020-05-28T11:28:03Z</time>
      </trkpt>
      <trkpt lat="49.62415" lon="4.98491">
        <ele>266.42</ele>
        <time>2020-05-28T11:28:16Z</time>
      </trkpt>
      <trkpt lat="49.62404" lon="4.98483">
        <ele>265.94</ele>
        <time>2020-05-28T11:28:28Z</time>
      </trkpt>
      <trkpt lat="49.62395" lon="4.98475">
        <ele>266.42</ele>
        <time>2020-05-28T11:28:41Z</time>
      </trkpt>
      <trkpt lat="49.62384" lon="4.98469">
        <ele>268.35</ele>
        <time>2020-05-28T11:28:50Z</time>
      </trkpt>
      <trkpt lat="49.6238" lon="4.98466">
        <ele>268.35</ele>
        <time>2020-05-28T11:28:55Z</time>
      </trkpt>
      <trkpt lat="49.62368" lon="4.98457">
        <ele>269.31</ele>
        <time>2020-05-28T11:29:07Z</time>
      </trkpt>
      <trkpt lat="49.62364" lon="4.98455">
        <ele>269.79</ele>
        <time>2020-05-28T11:29:14Z</time>
      </trkpt>
      <trkpt lat="49.62358" lon="4.98454">
        <ele>269.79</ele>
        <time>2020-05-28T11:29:20Z</time>
      </trkpt>
      <trkpt lat="49.62347" lon="4.98444">
        <ele>269.31</ele>
        <time>2020-05-28T11:29:33Z</time>
      </trkpt>
      <trkpt lat="49.62344" lon="4.98443">
        <ele>269.31</ele>
        <time>2020-05-28T11:29:36Z</time>
      </trkpt>
      <trkpt lat="49.62333" lon="4.98433">
        <ele>269.79</ele>
        <time>2020-05-28T11:29:48Z</time>
      </trkpt>
      <trkpt lat="49.62326" lon="4.98428">
        <ele>269.31</ele>
        <time>2020-05-28T11:29:59Z</time>
      </trkpt>
      <trkpt lat="49.62318" lon="4.98418">
        <ele>270.75</ele>
        <time>2020-05-28T11:30:11Z</time>
      </trkpt>
      <trkpt lat="49.62311" lon="4.98407">
        <ele>273.15</ele>
        <time>2020-05-28T11:30:22Z</time>
      </trkpt>
      <trkpt lat="49.62302" lon="4.98395">
        <ele>273.15</ele>
        <time>2020-05-28T11:30:35Z</time>
      </trkpt>
      <trkpt lat="49.62293" lon="4.9838">
        <ele>275.56</ele>
        <time>2020-05-28T11:30:48Z</time>
      </trkpt>
      <trkpt lat="49.62284" lon="4.98363">
        <ele>277.48</ele>
        <time>2020-05-28T11:31:03Z</time>
      </trkpt>
      <trkpt lat="49.62277" lon="4.98347">
        <ele>278.92</ele>
        <time>2020-05-28T11:31:15Z</time>
      </trkpt>
      <trkpt lat="49.62269" lon="4.98334">
        <ele>280.36</ele>
        <time>2020-05-28T11:31:26Z</time>
      </trkpt>
      <trkpt lat="49.62257" lon="4.98326">
        <ele>282.28</ele>
        <time>2020-05-28T11:31:40Z</time>
      </trkpt>
      <trkpt lat="49.62246" lon="4.98316">
        <ele>282.77</ele>
        <time>2020-05-28T11:31:54Z</time>
      </trkpt>
      <trkpt lat="49.62241" lon="4.98313">
        <ele>283.73</ele>
        <time>2020-05-28T11:32:01Z</time>
      </trkpt>
      <trkpt lat="49.62233" lon="4.98311">
        <ele>285.17</ele>
        <time>2020-05-28T11:32:09Z</time>
      </trkpt>
      <trkpt lat="49.62218" lon="4.98302">
        <ele>290.94</ele>
        <time>2020-05-28T11:32:22Z</time>
      </trkpt>
      <trkpt lat="49.62207" lon="4.98296">
        <ele>296.22</ele>
        <time>2020-05-28T11:32:36Z</time>
      </trkpt>
      <trkpt lat="49.62192" lon="4.98291">
        <ele>301.03</ele>
        <time>2020-05-28T11:32:49Z</time>
      </trkpt>
      <trkpt lat="49.62179" lon="4.98285">
        <ele>305.84</ele>
        <time>2020-05-28T11:33:03Z</time>
      </trkpt>
      <trkpt lat="49.62177" lon="4.98285">
        <ele>306.32</ele>
        <time>2020-05-28T11:33:04Z</time>
      </trkpt>
      <trkpt lat="49.62163" lon="4.98283">
        <ele>306.8</ele>
        <time>2020-05-28T11:33:16Z</time>
      </trkpt>
      <trkpt lat="49.62151" lon="4.98282">
        <ele>305.84</ele>
        <time>2020-05-28T11:33:29Z</time>
      </trkpt>
      <trkpt lat="49.62141" lon="4.98279">
        <ele>303.43</ele>
        <time>2020-05-28T11:33:40Z</time>
      </trkpt>
      <trkpt lat="49.62129" lon="4.98276">
        <ele>302.95</ele>
        <time>2020-05-28T11:33:52Z</time>
      </trkpt>
      <trkpt lat="49.62119" lon="4.98269">
        <ele>303.43</ele>
        <time>2020-05-28T11:34:03Z</time>
      </trkpt>
      <trkpt lat="49.62112" lon="4.98261">
        <ele>301.99</ele>
        <time>2020-05-28T11:34:13Z</time>
      </trkpt>
      <trkpt lat="49.62102" lon="4.9825">
        <ele>298.63</ele>
        <time>2020-05-28T11:34:26Z</time>
      </trkpt>
      <trkpt lat="49.62092" lon="4.98236">
        <ele>294.78</ele>
        <time>2020-05-28T11:34:36Z</time>
      </trkpt>
      <trkpt lat="49.62082" lon="4.98225">
        <ele>292.86</ele>
        <time>2020-05-28T11:34:48Z</time>
      </trkpt>
      <trkpt lat="49.6207" lon="4.98218">
        <ele>294.3</ele>
        <time>2020-05-28T11:35:00Z</time>
      </trkpt>
      <trkpt lat="49.62064" lon="4.98216">
        <ele>295.26</ele>
        <time>2020-05-28T11:35:07Z</time>
      </trkpt>
      <trkpt lat="49.62051" lon="4.9821">
        <ele>293.82</ele>
        <time>2020-05-28T11:35:20Z</time>
      </trkpt>
      <trkpt lat="49.62048" lon="4.98209">
        <ele>293.34</ele>
        <time>2020-05-28T11:35:23Z</time>
      </trkpt>
      <trkpt lat="49.62036" lon="4.98204">
        <ele>292.38</ele>
        <time>2020-05-28T11:35:36Z</time>
      </trkpt>
      <trkpt lat="49.62026" lon="4.98201">
        <ele>292.38</ele>
        <time>2020-05-28T11:35:47Z</time>
      </trkpt>
      <trkpt lat="49.62014" lon="4.98195">
        <ele>292.86</ele>
        <time>2020-05-28T11:35:59Z</time>
      </trkpt>
      <trkpt lat="49.62003" lon="4.98187">
        <ele>294.3</ele>
        <time>2020-05-28T11:36:12Z</time>
      </trkpt>
      <trkpt lat="49.61992" lon="4.98182">
        <ele>296.7</ele>
        <time>2020-05-28T11:36:24Z</time>
      </trkpt>
      <trkpt lat="49.61979" lon="4.98176">
        <ele>297.18</ele>
        <time>2020-05-28T11:36:37Z</time>
      </trkpt>
      <trkpt lat="49.61964" lon="4.98164">
        <ele>299.59</ele>
        <time>2020-05-28T11:36:52Z</time>
      </trkpt>
      <trkpt lat="49.61952" lon="4.98161">
        <ele>301.03</ele>
        <time>2020-05-28T11:37:05Z</time>
      </trkpt>
      <trkpt lat="49.61941" lon="4.98157">
        <ele>302.47</ele>
        <time>2020-05-28T11:37:16Z</time>
      </trkpt>
      <trkpt lat="49.61929" lon="4.98154">
        <ele>306.32</ele>
        <time>2020-05-28T11:37:31Z</time>
      </trkpt>
      <trkpt lat="49.61924" lon="4.98152">
        <ele>308.24</ele>
        <time>2020-05-28T11:37:38Z</time>
      </trkpt>
      <trkpt lat="49.61911" lon="4.98146">
        <ele>311.6</ele>
        <time>2020-05-28T11:37:51Z</time>
      </trkpt>
      <trkpt lat="49.61905" lon="4.98146">
        <ele>312.09</ele>
        <time>2020-05-28T11:37:58Z</time>
      </trkpt>
      <trkpt lat="49.61894" lon="4.98149">
        <ele>312.09</ele>
        <time>2020-05-28T11:38:06Z</time>
      </trkpt>
      <trkpt lat="49.61882" lon="4.9815">
        <ele>313.05</ele>
        <time>2020-05-28T11:38:20Z</time>
      </trkpt>
      <trkpt lat="49.61869" lon="4.98155">
        <ele>313.53</ele>
        <time>2020-05-28T11:38:32Z</time>
      </trkpt>
      <trkpt lat="49.61858" lon="4.98159">
        <ele>312.57</ele>
        <time>2020-05-28T11:38:43Z</time>
      </trkpt>
      <trkpt lat="49.61844" lon="4.98167">
        <ele>310.64</ele>
        <time>2020-05-28T11:38:58Z</time>
      </trkpt>
      <trkpt lat="49.6184" lon="4.98171">
        <ele>309.68</ele>
        <time>2020-05-28T11:39:02Z</time>
      </trkpt>
      <trkpt lat="49.61836" lon="4.98172">
        <ele>309.68</ele>
        <time>2020-05-28T11:39:06Z</time>
      </trkpt>
      <trkpt lat="49.61823" lon="4.98177">
        <ele>310.64</ele>
        <time>2020-05-28T11:39:19Z</time>
      </trkpt>
      <trkpt lat="49.61822" lon="4.98177">
        <ele>306.32</ele>
        <time>2020-05-28T11:39:31Z</time>
      </trkpt>
      <trkpt lat="49.61814" lon="4.98194">
        <ele>306.8</ele>
        <time>2020-05-28T11:39:45Z</time>
      </trkpt>
      <trkpt lat="49.61812" lon="4.98198">
        <ele>306.8</ele>
        <time>2020-05-28T11:39:48Z</time>
      </trkpt>
      <trkpt lat="49.61808" lon="4.98221">
        <ele>307.76</ele>
        <time>2020-05-28T11:40:03Z</time>
      </trkpt>
      <trkpt lat="49.61804" lon="4.98238">
        <ele>310.16</ele>
        <time>2020-05-28T11:40:17Z</time>
      </trkpt>
      <trkpt lat="49.61802" lon="4.98252">
        <ele>309.68</ele>
        <time>2020-05-28T11:40:27Z</time>
      </trkpt>
      <trkpt lat="49.61802" lon="4.98262">
        <ele>309.68</ele>
        <time>2020-05-28T11:40:37Z</time>
      </trkpt>
      <trkpt lat="49.61798" lon="4.98281">
        <ele>310.16</ele>
        <time>2020-05-28T11:40:51Z</time>
      </trkpt>
      <trkpt lat="49.61798" lon="4.98285">
        <ele>310.16</ele>
        <time>2020-05-28T11:40:53Z</time>
      </trkpt>
      <trkpt lat="49.61795" lon="4.98313">
        <ele>309.2</ele>
        <time>2020-05-28T11:41:07Z</time>
      </trkpt>
      <trkpt lat="49.61791" lon="4.9833">
        <ele>308.24</ele>
        <time>2020-05-28T11:41:20Z</time>
      </trkpt>
      <trkpt lat="49.61788" lon="4.98349">
        <ele>308.72</ele>
        <time>2020-05-28T11:41:34Z</time>
      </trkpt>
      <trkpt lat="49.61785" lon="4.98369">
        <ele>307.28</ele>
        <time>2020-05-28T11:41:46Z</time>
      </trkpt>
      <trkpt lat="49.61781" lon="4.9838">
        <ele>306.8</ele>
        <time>2020-05-28T11:41:59Z</time>
      </trkpt>
      <trkpt lat="49.61776" lon="4.98396">
        <ele>306.32</ele>
        <time>2020-05-28T11:42:08Z</time>
      </trkpt>
      <trkpt lat="49.61772" lon="4.98408">
        <ele>305.84</ele>
        <time>2020-05-28T11:42:16Z</time>
      </trkpt>
      <trkpt lat="49.61764" lon="4.98423">
        <ele>309.2</ele>
        <time>2020-05-28T11:42:30Z</time>
      </trkpt>
      <trkpt lat="49.61761" lon="4.9844">
        <ele>309.68</ele>
        <time>2020-05-28T11:42:42Z</time>
      </trkpt>
      <trkpt lat="49.61759" lon="4.98461">
        <ele>309.2</ele>
        <time>2020-05-28T11:42:55Z</time>
      </trkpt>
      <trkpt lat="49.61757" lon="4.98475">
        <ele>309.2</ele>
        <time>2020-05-28T11:43:11Z</time>
      </trkpt>
      <trkpt lat="49.61753" lon="4.98501">
        <ele>309.2</ele>
        <time>2020-05-28T11:43:23Z</time>
      </trkpt>
      <trkpt lat="49.61747" lon="4.98518">
        <ele>310.16</ele>
        <time>2020-05-28T11:43:36Z</time>
      </trkpt>
      <trkpt lat="49.61743" lon="4.98543">
        <ele>310.16</ele>
        <time>2020-05-28T11:43:50Z</time>
      </trkpt>
      <trkpt lat="49.61743" lon="4.98559">
        <ele>308.72</ele>
        <time>2020-05-28T11:44:03Z</time>
      </trkpt>
      <trkpt lat="49.61737" lon="4.98573">
        <ele>311.12</ele>
        <time>2020-05-28T11:44:17Z</time>
      </trkpt>
      <trkpt lat="49.61734" lon="4.98597">
        <ele>309.2</ele>
        <time>2020-05-28T11:44:31Z</time>
      </trkpt>
      <trkpt lat="49.61731" lon="4.98625">
        <ele>306.8</ele>
        <time>2020-05-28T11:44:46Z</time>
      </trkpt>
      <trkpt lat="49.61726" lon="4.98644">
        <ele>308.24</ele>
        <time>2020-05-28T11:45:00Z</time>
      </trkpt>
      <trkpt lat="49.61721" lon="4.98659">
        <ele>311.6</ele>
        <time>2020-05-28T11:45:15Z</time>
      </trkpt>
      <trkpt lat="49.61716" lon="4.98689">
        <ele>309.68</ele>
        <time>2020-05-28T11:45:30Z</time>
      </trkpt>
      <trkpt lat="49.6171" lon="4.98698">
        <ele>311.12</ele>
        <time>2020-05-28T11:45:39Z</time>
      </trkpt>
      <trkpt lat="49.61702" lon="4.98712">
        <ele>307.76</ele>
        <time>2020-05-28T11:45:53Z</time>
      </trkpt>
      <trkpt lat="49.61694" lon="4.98728">
        <ele>307.28</ele>
        <time>2020-05-28T11:46:09Z</time>
      </trkpt>
      <trkpt lat="49.61686" lon="4.98747">
        <ele>306.8</ele>
        <time>2020-05-28T11:46:24Z</time>
      </trkpt>
      <trkpt lat="49.61678" lon="4.98762">
        <ele>307.76</ele>
        <time>2020-05-28T11:46:39Z</time>
      </trkpt>
      <trkpt lat="49.61666" lon="4.98791">
        <ele>310.16</ele>
        <time>2020-05-28T11:46:56Z</time>
      </trkpt>
      <trkpt lat="49.61656" lon="4.98806">
        <ele>311.6</ele>
        <time>2020-05-28T11:47:12Z</time>
      </trkpt>
      <trkpt lat="49.61647" lon="4.98823">
        <ele>313.05</ele>
        <time>2020-05-28T11:47:27Z</time>
      </trkpt>
      <trkpt lat="49.61644" lon="4.9884">
        <ele>310.16</ele>
        <time>2020-05-28T11:47:41Z</time>
      </trkpt>
      <trkpt lat="49.61632" lon="4.98863">
        <ele>310.64</ele>
        <time>2020-05-28T11:47:59Z</time>
      </trkpt>
      <trkpt lat="49.61621" lon="4.98869">
        <ele>315.45</ele>
        <time>2020-05-28T11:48:11Z</time>
      </trkpt>
      <trkpt lat="49.61615" lon="4.98862">
        <ele>316.89</ele>
        <time>2020-05-28T11:48:19Z</time>
      </trkpt>
      <trkpt lat="49.61608" lon="4.98859">
        <ele>317.37</ele>
        <time>2020-05-28T11:48:32Z</time>
      </trkpt>
      <trkpt lat="49.61601" lon="4.9885">
        <ele>317.85</ele>
        <time>2020-05-28T11:48:40Z</time>
      </trkpt>
      <trkpt lat="49.61597" lon="4.98842">
        <ele>319.78</ele>
        <time>2020-05-28T11:48:49Z</time>
      </trkpt>
      <trkpt lat="49.61587" lon="4.98838">
        <ele>322.18</ele>
        <time>2020-05-28T11:49:03Z</time>
      </trkpt>
      <trkpt lat="49.61572" lon="4.98832">
        <ele>324.1</ele>
        <time>2020-05-28T11:49:15Z</time>
      </trkpt>
      <trkpt lat="49.61567" lon="4.98827">
        <ele>323.14</ele>
        <time>2020-05-28T11:49:21Z</time>
      </trkpt>
      <trkpt lat="49.61561" lon="4.98821">
        <ele>322.18</ele>
        <time>2020-05-28T11:49:27Z</time>
      </trkpt>
      <trkpt lat="49.61558" lon="4.98818">
        <ele>321.22</ele>
        <time>2020-05-28T11:49:33Z</time>
      </trkpt>
      <trkpt lat="49.61549" lon="4.98816">
        <ele>320.74</ele>
        <time>2020-05-28T11:49:43Z</time>
      </trkpt>
      <trkpt lat="49.6154" lon="4.98807">
        <ele>321.22</ele>
        <time>2020-05-28T11:49:55Z</time>
      </trkpt>
      <trkpt lat="49.61535" lon="4.98808">
        <ele>321.22</ele>
        <time>2020-05-28T11:50:01Z</time>
      </trkpt>
      <trkpt lat="49.61522" lon="4.98799">
        <ele>320.26</ele>
        <time>2020-05-28T11:50:17Z</time>
      </trkpt>
      <trkpt lat="49.61519" lon="4.988">
        <ele>319.78</ele>
        <time>2020-05-28T11:50:20Z</time>
      </trkpt>
      <trkpt lat="49.61505" lon="4.98796">
        <ele>319.3</ele>
        <time>2020-05-28T11:50:33Z</time>
      </trkpt>
      <trkpt lat="49.61492" lon="4.98794">
        <ele>323.14</ele>
        <time>2020-05-28T11:50:50Z</time>
      </trkpt>
      <trkpt lat="49.61478" lon="4.98798">
        <ele>323.14</ele>
        <time>2020-05-28T11:51:02Z</time>
      </trkpt>
      <trkpt lat="49.61471" lon="4.98803">
        <ele>322.66</ele>
        <time>2020-05-28T11:51:17Z</time>
      </trkpt>
      <trkpt lat="49.61466" lon="4.98802">
        <ele>323.14</ele>
        <time>2020-05-28T11:51:27Z</time>
      </trkpt>
      <trkpt lat="49.61455" lon="4.98802">
        <ele>321.22</ele>
        <time>2020-05-28T11:51:39Z</time>
      </trkpt>
      <trkpt lat="49.61451" lon="4.98802">
        <ele>321.22</ele>
        <time>2020-05-28T11:51:50Z</time>
      </trkpt>
      <trkpt lat="49.61447" lon="4.98797">
        <ele>319.3</ele>
        <time>2020-05-28T11:52:03Z</time>
      </trkpt>
      <trkpt lat="49.61445" lon="4.98793">
        <ele>320.26</ele>
        <time>2020-05-28T11:52:16Z</time>
      </trkpt>
      <trkpt lat="49.61431" lon="4.98776">
        <ele>317.37</ele>
        <time>2020-05-28T11:52:32Z</time>
      </trkpt>
      <trkpt lat="49.61431" lon="4.98774">
        <ele>316.41</ele>
        <time>2020-05-28T11:52:36Z</time>
      </trkpt>
      <trkpt lat="49.61424" lon="4.9876">
        <ele>316.41</ele>
        <time>2020-05-28T11:52:49Z</time>
      </trkpt>
      <trkpt lat="49.6142" lon="4.98751">
        <ele>315.93</ele>
        <time>2020-05-28T11:53:01Z</time>
      </trkpt>
      <trkpt lat="49.61417" lon="4.98742">
        <ele>312.57</ele>
        <time>2020-05-28T11:53:14Z</time>
      </trkpt>
      <trkpt lat="49.61416" lon="4.98739">
        <ele>312.57</ele>
        <time>2020-05-28T11:53:16Z</time>
      </trkpt>
      <trkpt lat="49.61408" lon="4.98724">
        <ele>314.49</ele>
        <time>2020-05-28T11:53:31Z</time>
      </trkpt>
      <trkpt lat="49.61395" lon="4.98707">
        <ele>314.97</ele>
        <time>2020-05-28T11:53:46Z</time>
      </trkpt>
      <trkpt lat="49.61391" lon="4.98699">
        <ele>314.49</ele>
        <time>2020-05-28T11:53:58Z</time>
      </trkpt>
      <trkpt lat="49.61379" lon="4.98685">
        <ele>315.93</ele>
        <time>2020-05-28T11:54:14Z</time>
      </trkpt>
      <trkpt lat="49.61375" lon="4.98664">
        <ele>311.12</ele>
        <time>2020-05-28T11:54:25Z</time>
      </trkpt>
      <trkpt lat="49.61373" lon="4.98651">
        <ele>312.09</ele>
        <time>2020-05-28T11:54:38Z</time>
      </trkpt>
      <trkpt lat="49.61364" lon="4.98636">
        <ele>312.57</ele>
        <time>2020-05-28T11:54:53Z</time>
      </trkpt>
      <trkpt lat="49.6136" lon="4.98633">
        <ele>313.05</ele>
        <time>2020-05-28T11:55:00Z</time>
      </trkpt>
      <trkpt lat="49.61356" lon="4.9863">
        <ele>314.49</ele>
        <time>2020-05-28T11:55:03Z</time>
      </trkpt>
      <trkpt lat="49.61349" lon="4.98604">
        <ele>313.05</ele>
        <time>2020-05-28T11:55:17Z</time>
      </trkpt>
      <trkpt lat="49.6134" lon="4.98593">
        <ele>311.6</ele>
        <time>2020-05-28T11:55:30Z</time>
      </trkpt>
      <trkpt lat="49.61332" lon="4.98575">
        <ele>310.64</ele>
        <time>2020-05-28T11:55:45Z</time>
      </trkpt>
      <trkpt lat="49.61327" lon="4.98566">
        <ele>310.64</ele>
        <time>2020-05-28T11:55:53Z</time>
      </trkpt>
      <trkpt lat="49.61318" lon="4.98554">
        <ele>308.72</ele>
        <time>2020-05-28T11:56:11Z</time>
      </trkpt>
      <trkpt lat="49.61306" lon="4.98541">
        <ele>305.36</ele>
        <time>2020-05-28T11:56:26Z</time>
      </trkpt>
      <trkpt lat="49.61292" lon="4.98524">
        <ele>303.91</ele>
        <time>2020-05-28T11:56:42Z</time>
      </trkpt>
      <trkpt lat="49.61284" lon="4.98511">
        <ele>301.99</ele>
        <time>2020-05-28T11:56:55Z</time>
      </trkpt>
      <trkpt lat="49.61279" lon="4.98504">
        <ele>302.47</ele>
        <time>2020-05-28T11:57:01Z</time>
      </trkpt>
      <trkpt lat="49.61271" lon="4.98494">
        <ele>302.47</ele>
        <time>2020-05-28T11:57:15Z</time>
      </trkpt>
      <trkpt lat="49.61267" lon="4.98488">
        <ele>302.47</ele>
        <time>2020-05-28T11:57:23Z</time>
      </trkpt>
      <trkpt lat="49.6126" lon="4.98474">
        <ele>302.47</ele>
        <time>2020-05-28T11:57:38Z</time>
      </trkpt>
      <trkpt lat="49.61249" lon="4.98455">
        <ele>302.47</ele>
        <time>2020-05-28T11:57:56Z</time>
      </trkpt>
      <trkpt lat="49.61238" lon="4.9844">
        <ele>301.99</ele>
        <time>2020-05-28T11:58:10Z</time>
      </trkpt>
      <trkpt lat="49.61225" lon="4.98429">
        <ele>301.99</ele>
        <time>2020-05-28T11:58:25Z</time>
      </trkpt>
      <trkpt lat="49.61223" lon="4.98419">
        <ele>301.99</ele>
        <time>2020-05-28T11:58:41Z</time>
      </trkpt>
      <trkpt lat="49.61216" lon="4.98409">
        <ele>302.47</ele>
        <time>2020-05-28T11:58:55Z</time>
      </trkpt>
      <trkpt lat="49.61209" lon="4.98401">
        <ele>302.95</ele>
        <time>2020-05-28T11:59:09Z</time>
      </trkpt>
      <trkpt lat="49.61203" lon="4.98388">
        <ele>302.95</ele>
        <time>2020-05-28T11:59:22Z</time>
      </trkpt>
      <trkpt lat="49.61191" lon="4.98373">
        <ele>302.95</ele>
        <time>2020-05-28T11:59:35Z</time>
      </trkpt>
      <trkpt lat="49.61183" lon="4.98353">
        <ele>302.95</ele>
        <time>2020-05-28T11:59:50Z</time>
      </trkpt>
      <trkpt lat="49.61181" lon="4.98351">
        <ele>302.95</ele>
        <time>2020-05-28T11:59:52Z</time>
      </trkpt>
      <trkpt lat="49.61172" lon="4.98341">
        <ele>304.39</ele>
        <time>2020-05-28T12:00:08Z</time>
      </trkpt>
      <trkpt lat="49.61166" lon="4.98325">
        <ele>304.88</ele>
        <time>2020-05-28T12:00:23Z</time>
      </trkpt>
      <trkpt lat="49.61159" lon="4.98311">
        <ele>304.88</ele>
        <time>2020-05-28T12:00:34Z</time>
      </trkpt>
      <trkpt lat="49.61147" lon="4.98293">
        <ele>304.39</ele>
        <time>2020-05-28T12:00:47Z</time>
      </trkpt>
      <trkpt lat="49.61135" lon="4.98271">
        <ele>303.43</ele>
        <time>2020-05-28T12:01:01Z</time>
      </trkpt>
      <trkpt lat="49.61134" lon="4.9827">
        <ele>302.95</ele>
        <time>2020-05-28T12:01:03Z</time>
      </trkpt>
      <trkpt lat="49.61131" lon="4.98266">
        <ele>302.95</ele>
        <time>2020-05-28T12:01:06Z</time>
      </trkpt>
      <trkpt lat="49.61124" lon="4.98254">
        <ele>302.95</ele>
        <time>2020-05-28T12:01:16Z</time>
      </trkpt>
      <trkpt lat="49.61116" lon="4.98242">
        <ele>302.47</ele>
        <time>2020-05-28T12:01:25Z</time>
      </trkpt>
      <trkpt lat="49.6111" lon="4.98229">
        <ele>302.95</ele>
        <time>2020-05-28T12:01:39Z</time>
      </trkpt>
      <trkpt lat="49.61104" lon="4.98213">
        <ele>303.43</ele>
        <time>2020-05-28T12:01:52Z</time>
      </trkpt>
      <trkpt lat="49.61097" lon="4.98204">
        <ele>303.91</ele>
        <time>2020-05-28T12:02:10Z</time>
      </trkpt>
      <trkpt lat="49.6109" lon="4.98195">
        <ele>304.39</ele>
        <time>2020-05-28T12:02:25Z</time>
      </trkpt>
      <trkpt lat="49.61083" lon="4.98178">
        <ele>305.84</ele>
        <time>2020-05-28T12:02:40Z</time>
      </trkpt>
      <trkpt lat="49.61069" lon="4.98158">
        <ele>308.24</ele>
        <time>2020-05-28T12:02:56Z</time>
      </trkpt>
      <trkpt lat="49.61053" lon="4.98142">
        <ele>309.68</ele>
        <time>2020-05-28T12:03:09Z</time>
      </trkpt>
      <trkpt lat="49.61044" lon="4.98126">
        <ele>311.12</ele>
        <time>2020-05-28T12:03:25Z</time>
      </trkpt>
      <trkpt lat="49.61033" lon="4.98118">
        <ele>310.16</ele>
        <time>2020-05-28T12:03:39Z</time>
      </trkpt>
      <trkpt lat="49.61029" lon="4.98107">
        <ele>309.2</ele>
        <time>2020-05-28T12:03:53Z</time>
      </trkpt>
      <trkpt lat="49.61024" lon="4.98102">
        <ele>309.68</ele>
        <time>2020-05-28T12:04:08Z</time>
      </trkpt>
      <trkpt lat="49.61012" lon="4.98092">
        <ele>309.2</ele>
        <time>2020-05-28T12:04:24Z</time>
      </trkpt>
      <trkpt lat="49.61008" lon="4.98081">
        <ele>309.2</ele>
        <time>2020-05-28T12:04:40Z</time>
      </trkpt>
      <trkpt lat="49.61006" lon="4.98079">
        <ele>309.2</ele>
        <time>2020-05-28T12:04:46Z</time>
      </trkpt>
      <trkpt lat="49.60989" lon="4.98061">
        <ele>309.2</ele>
        <time>2020-05-28T12:05:01Z</time>
      </trkpt>
      <trkpt lat="49.60974" lon="4.98043">
        <ele>308.24</ele>
        <time>2020-05-28T12:05:16Z</time>
      </trkpt>
      <trkpt lat="49.60963" lon="4.98027">
        <ele>308.24</ele>
        <time>2020-05-28T12:05:29Z</time>
      </trkpt>
      <trkpt lat="49.60951" lon="4.98011">
        <ele>307.28</ele>
        <time>2020-05-28T12:05:44Z</time>
      </trkpt>
      <trkpt lat="49.60939" lon="4.97997">
        <ele>306.8</ele>
        <time>2020-05-28T12:05:58Z</time>
      </trkpt>
      <trkpt lat="49.60928" lon="4.97982">
        <ele>305.36</ele>
        <time>2020-05-28T12:06:11Z</time>
      </trkpt>
      <trkpt lat="49.60917" lon="4.97967">
        <ele>304.39</ele>
        <time>2020-05-28T12:06:24Z</time>
      </trkpt>
      <trkpt lat="49.6091" lon="4.97949">
        <ele>303.91</ele>
        <time>2020-05-28T12:06:39Z</time>
      </trkpt>
      <trkpt lat="49.60902" lon="4.97933">
        <ele>303.43</ele>
        <time>2020-05-28T12:06:54Z</time>
      </trkpt>
      <trkpt lat="49.60889" lon="4.97912">
        <ele>302.47</ele>
        <time>2020-05-28T12:07:10Z</time>
      </trkpt>
      <trkpt lat="49.6088" lon="4.97896">
        <ele>303.43</ele>
        <time>2020-05-28T12:07:24Z</time>
      </trkpt>
      <trkpt lat="49.60875" lon="4.97886">
        <ele>301.99</ele>
        <time>2020-05-28T12:07:38Z</time>
      </trkpt>
      <trkpt lat="49.60875" lon="4.97885">
        <ele>301.99</ele>
        <time>2020-05-28T12:07:39Z</time>
      </trkpt>
      <trkpt lat="49.60867" lon="4.97871">
        <ele>301.99</ele>
        <time>2020-05-28T12:07:52Z</time>
      </trkpt>
      <trkpt lat="49.6086" lon="4.9785">
        <ele>300.55</ele>
        <time>2020-05-28T12:08:07Z</time>
      </trkpt>
      <trkpt lat="49.60853" lon="4.97828">
        <ele>300.07</ele>
        <time>2020-05-28T12:08:24Z</time>
      </trkpt>
      <trkpt lat="49.60849" lon="4.97813">
        <ele>300.07</ele>
        <time>2020-05-28T12:08:38Z</time>
      </trkpt>
      <trkpt lat="49.60848" lon="4.97795">
        <ele>301.51</ele>
        <time>2020-05-28T12:08:51Z</time>
      </trkpt>
      <trkpt lat="49.6084" lon="4.97773">
        <ele>299.59</ele>
        <time>2020-05-28T12:09:07Z</time>
      </trkpt>
      <trkpt lat="49.60838" lon="4.9775">
        <ele>296.7</ele>
        <time>2020-05-28T12:09:23Z</time>
      </trkpt>
      <trkpt lat="49.60831" lon="4.97734">
        <ele>293.34</ele>
        <time>2020-05-28T12:09:37Z</time>
      </trkpt>
      <trkpt lat="49.60832" lon="4.97708">
        <ele>292.38</ele>
        <time>2020-05-28T12:09:54Z</time>
      </trkpt>
      <trkpt lat="49.60824" lon="4.97693">
        <ele>289.97</ele>
        <time>2020-05-28T12:10:09Z</time>
      </trkpt>
      <trkpt lat="49.60823" lon="4.9769">
        <ele>289.97</ele>
        <time>2020-05-28T12:10:11Z</time>
      </trkpt>
      <trkpt lat="49.6082" lon="4.97676">
        <ele>288.05</ele>
        <time>2020-05-28T12:10:19Z</time>
      </trkpt>
      <trkpt lat="49.60813" lon="4.97654">
        <ele>287.57</ele>
        <time>2020-05-28T12:10:34Z</time>
      </trkpt>
      <trkpt lat="49.60811" lon="4.97634">
        <ele>286.61</ele>
        <time>2020-05-28T12:10:49Z</time>
      </trkpt>
      <trkpt lat="49.60806" lon="4.97621">
        <ele>285.65</ele>
        <time>2020-05-28T12:11:03Z</time>
      </trkpt>
      <trkpt lat="49.60798" lon="4.97605">
        <ele>284.69</ele>
        <time>2020-05-28T12:11:17Z</time>
      </trkpt>
      <trkpt lat="49.60795" lon="4.9759">
        <ele>283.25</ele>
        <time>2020-05-28T12:11:33Z</time>
      </trkpt>
      <trkpt lat="49.60794" lon="4.97586">
        <ele>282.77</ele>
        <time>2020-05-28T12:11:55Z</time>
      </trkpt>
      <trkpt lat="49.60793" lon="4.97577">
        <ele>282.28</ele>
        <time>2020-05-28T12:12:10Z</time>
      </trkpt>
      <trkpt lat="49.60789" lon="4.97564">
        <ele>282.28</ele>
        <time>2020-05-28T12:12:24Z</time>
      </trkpt>
      <trkpt lat="49.60783" lon="4.97553">
        <ele>283.25</ele>
        <time>2020-05-28T12:12:40Z</time>
      </trkpt>
      <trkpt lat="49.60782" lon="4.97532">
        <ele>283.25</ele>
        <time>2020-05-28T12:12:54Z</time>
      </trkpt>
      <trkpt lat="49.60782" lon="4.9753">
        <ele>283.25</ele>
        <time>2020-05-28T12:12:55Z</time>
      </trkpt>
      <trkpt lat="49.60781" lon="4.97508">
        <ele>284.69</ele>
        <time>2020-05-28T12:13:10Z</time>
      </trkpt>
      <trkpt lat="49.60774" lon="4.9749">
        <ele>283.25</ele>
        <time>2020-05-28T12:13:22Z</time>
      </trkpt>
      <trkpt lat="49.60772" lon="4.97469">
        <ele>283.25</ele>
        <time>2020-05-28T12:13:36Z</time>
      </trkpt>
      <trkpt lat="49.6077" lon="4.9745">
        <ele>282.77</ele>
        <time>2020-05-28T12:13:50Z</time>
      </trkpt>
      <trkpt lat="49.6076" lon="4.97431">
        <ele>281.8</ele>
        <time>2020-05-28T12:14:06Z</time>
      </trkpt>
      <trkpt lat="49.60751" lon="4.97417">
        <ele>280.36</ele>
        <time>2020-05-28T12:14:23Z</time>
      </trkpt>
      <trkpt lat="49.60751" lon="4.97415">
        <ele>280.36</ele>
        <time>2020-05-28T12:14:24Z</time>
      </trkpt>
      <trkpt lat="49.60744" lon="4.97391">
        <ele>279.4</ele>
        <time>2020-05-28T12:14:38Z</time>
      </trkpt>
      <trkpt lat="49.60735" lon="4.97374">
        <ele>277</ele>
        <time>2020-05-28T12:14:49Z</time>
      </trkpt>
      <trkpt lat="49.60735" lon="4.97371">
        <ele>276.52</ele>
        <time>2020-05-28T12:14:51Z</time>
      </trkpt>
      <trkpt lat="49.60732" lon="4.97361">
        <ele>276.04</ele>
        <time>2020-05-28T12:14:58Z</time>
      </trkpt>
      <trkpt lat="49.6073" lon="4.97358">
        <ele>275.56</ele>
        <time>2020-05-28T12:15:00Z</time>
      </trkpt>
      <trkpt lat="49.60719" lon="4.9734">
        <ele>262.58</ele>
        <time>2020-05-28T12:15:10Z</time>
      </trkpt>
      <trkpt lat="49.60715" lon="4.97323">
        <ele>252.48</ele>
        <time>2020-05-28T12:15:24Z</time>
      </trkpt>
      <trkpt lat="49.60712" lon="4.97308">
        <ele>248.64</ele>
        <time>2020-05-28T12:15:37Z</time>
      </trkpt>
      <trkpt lat="49.60711" lon="4.97303">
        <ele>248.16</ele>
        <time>2020-05-28T12:15:41Z</time>
      </trkpt>
      <trkpt lat="49.60703" lon="4.97286">
        <ele>245.27</ele>
        <time>2020-05-28T12:15:55Z</time>
      </trkpt>
      <trkpt lat="49.60699" lon="4.97267">
        <ele>240.95</ele>
        <time>2020-05-28T12:16:10Z</time>
      </trkpt>
      <trkpt lat="49.60698" lon="4.9726">
        <ele>239.99</ele>
        <time>2020-05-28T12:16:15Z</time>
      </trkpt>
      <trkpt lat="49.60695" lon="4.97243">
        <ele>237.1</ele>
        <time>2020-05-28T12:16:28Z</time>
      </trkpt>
      <trkpt lat="49.60694" lon="4.9724">
        <ele>237.1</ele>
        <time>2020-05-28T12:16:30Z</time>
      </trkpt>
      <trkpt lat="49.6069" lon="4.97221">
        <ele>235.66</ele>
        <time>2020-05-28T12:16:44Z</time>
      </trkpt>
      <trkpt lat="49.60689" lon="4.97205">
        <ele>235.18</ele>
        <time>2020-05-28T12:16:58Z</time>
      </trkpt>
      <trkpt lat="49.60689" lon="4.97183">
        <ele>236.14</ele>
        <time>2020-05-28T12:17:11Z</time>
      </trkpt>
      <trkpt lat="49.60688" lon="4.97163">
        <ele>236.14</ele>
        <time>2020-05-28T12:17:24Z</time>
      </trkpt>
      <trkpt lat="49.60688" lon="4.97149">
        <ele>237.58</ele>
        <time>2020-05-28T12:17:33Z</time>
      </trkpt>
      <trkpt lat="49.60688" lon="4.97127">
        <ele>239.51</ele>
        <time>2020-05-28T12:17:47Z</time>
      </trkpt>
      <trkpt lat="49.60688" lon="4.97121">
        <ele>239.02</ele>
        <time>2020-05-28T12:17:50Z</time>
      </trkpt>
      <trkpt lat="49.60689" lon="4.97099">
        <ele>237.58</ele>
        <time>2020-05-28T12:18:04Z</time>
      </trkpt>
      <trkpt lat="49.6069" lon="4.97079">
        <ele>236.62</ele>
        <time>2020-05-28T12:18:17Z</time>
      </trkpt>
      <trkpt lat="49.60689" lon="4.97057">
        <ele>234.7</ele>
        <time>2020-05-28T12:18:33Z</time>
      </trkpt>
      <trkpt lat="49.60689" lon="4.97033">
        <ele>234.7</ele>
        <time>2020-05-28T12:18:48Z</time>
      </trkpt>
      <trkpt lat="49.60688" lon="4.97011">
        <ele>233.74</ele>
        <time>2020-05-28T12:19:03Z</time>
      </trkpt>
      <trkpt lat="49.60686" lon="4.97003">
        <ele>232.78</ele>
        <time>2020-05-28T12:19:08Z</time>
      </trkpt>
      <trkpt lat="49.60688" lon="4.96986">
        <ele>231.81</ele>
        <time>2020-05-28T12:19:19Z</time>
      </trkpt>
      <trkpt lat="49.60687" lon="4.9697">
        <ele>230.85</ele>
        <time>2020-05-28T12:19:30Z</time>
      </trkpt>
      <trkpt lat="49.60687" lon="4.9695">
        <ele>229.41</ele>
        <time>2020-05-28T12:19:44Z</time>
      </trkpt>
      <trkpt lat="49.60684" lon="4.96926">
        <ele>224.12</ele>
        <time>2020-05-28T12:20:00Z</time>
      </trkpt>
      <trkpt lat="49.60682" lon="4.96904">
        <ele>221.72</ele>
        <time>2020-05-28T12:20:15Z</time>
      </trkpt>
      <trkpt lat="49.60678" lon="4.96883">
        <ele>220.76</ele>
        <time>2020-05-28T12:20:30Z</time>
      </trkpt>
      <trkpt lat="49.60678" lon="4.96881">
        <ele>220.76</ele>
        <time>2020-05-28T12:20:31Z</time>
      </trkpt>
      <trkpt lat="49.60672" lon="4.96869">
        <ele>220.28</ele>
        <time>2020-05-28T12:20:42Z</time>
      </trkpt>
      <trkpt lat="49.60665" lon="4.9685">
        <ele>220.28</ele>
        <time>2020-05-28T12:20:56Z</time>
      </trkpt>
      <trkpt lat="49.60664" lon="4.96846">
        <ele>218.84</ele>
        <time>2020-05-28T12:21:01Z</time>
      </trkpt>
      <trkpt lat="49.60662" lon="4.96833">
        <ele>218.84</ele>
        <time>2020-05-28T12:21:08Z</time>
      </trkpt>
      <trkpt lat="49.60653" lon="4.96813">
        <ele>216.43</ele>
        <time>2020-05-28T12:21:23Z</time>
      </trkpt>
      <trkpt lat="49.60651" lon="4.96808">
        <ele>216.43</ele>
        <time>2020-05-28T12:21:29Z</time>
      </trkpt>
      <trkpt lat="49.60646" lon="4.96797">
        <ele>215.47</ele>
        <time>2020-05-28T12:21:40Z</time>
      </trkpt>
      <trkpt lat="49.60643" lon="4.96787">
        <ele>214.99</ele>
        <time>2020-05-28T12:21:46Z</time>
      </trkpt>
      <trkpt lat="49.60636" lon="4.96766">
        <ele>213.07</ele>
        <time>2020-05-28T12:22:01Z</time>
      </trkpt>
      <trkpt lat="49.6063" lon="4.96747">
        <ele>212.11</ele>
        <time>2020-05-28T12:22:14Z</time>
      </trkpt>
      <trkpt lat="49.60623" lon="4.96725">
        <ele>210.67</ele>
        <time>2020-05-28T12:22:29Z</time>
      </trkpt>
      <trkpt lat="49.6062" lon="4.96718">
        <ele>211.63</ele>
        <time>2020-05-28T12:22:36Z</time>
      </trkpt>
      <trkpt lat="49.60612" lon="4.96693">
        <ele>211.15</ele>
        <time>2020-05-28T12:22:51Z</time>
      </trkpt>
      <trkpt lat="49.60606" lon="4.96673">
        <ele>211.63</ele>
        <time>2020-05-28T12:23:05Z</time>
      </trkpt>
      <trkpt lat="49.60601" lon="4.9665">
        <ele>214.03</ele>
        <time>2020-05-28T12:23:20Z</time>
      </trkpt>
      <trkpt lat="49.60594" lon="4.96631">
        <ele>214.51</ele>
        <time>2020-05-28T12:23:34Z</time>
      </trkpt>
      <trkpt lat="49.60593" lon="4.96618">
        <ele>214.51</ele>
        <time>2020-05-28T12:23:40Z</time>
      </trkpt>
      <trkpt lat="49.60587" lon="4.96596">
        <ele>214.51</ele>
        <time>2020-05-28T12:23:55Z</time>
      </trkpt>
      <trkpt lat="49.60586" lon="4.96594">
        <ele>215.47</ele>
        <time>2020-05-28T12:23:58Z</time>
      </trkpt>
      <trkpt lat="49.60583" lon="4.96575">
        <ele>216.91</ele>
        <time>2020-05-28T12:24:10Z</time>
      </trkpt>
      <trkpt lat="49.6058" lon="4.96559">
        <ele>215.47</ele>
        <time>2020-05-28T12:24:21Z</time>
      </trkpt>
      <trkpt lat="49.60579" lon="4.9655">
        <ele>215.95</ele>
        <time>2020-05-28T12:24:26Z</time>
      </trkpt>
      <trkpt lat="49.60577" lon="4.96536">
        <ele>216.43</ele>
        <time>2020-05-28T12:24:36Z</time>
      </trkpt>
      <trkpt lat="49.60573" lon="4.96516">
        <ele>215.95</ele>
        <time>2020-05-28T12:24:49Z</time>
      </trkpt>
      <trkpt lat="49.60573" lon="4.96513">
        <ele>215.95</ele>
        <time>2020-05-28T12:24:51Z</time>
      </trkpt>
      <trkpt lat="49.60569" lon="4.96493">
        <ele>216.91</ele>
        <time>2020-05-28T12:25:04Z</time>
      </trkpt>
      <trkpt lat="49.60568" lon="4.96492">
        <ele>216.91</ele>
        <time>2020-05-28T12:25:05Z</time>
      </trkpt>
      <trkpt lat="49.60566" lon="4.96471">
        <ele>217.4</ele>
        <time>2020-05-28T12:25:18Z</time>
      </trkpt>
      <trkpt lat="49.60566" lon="4.96454">
        <ele>218.84</ele>
        <time>2020-05-28T12:25:30Z</time>
      </trkpt>
      <trkpt lat="49.60567" lon="4.96436">
        <ele>221.24</ele>
        <time>2020-05-28T12:25:43Z</time>
      </trkpt>
      <trkpt lat="49.60568" lon="4.96435">
        <ele>221.72</ele>
        <time>2020-05-28T12:25:44Z</time>
      </trkpt>
      <trkpt lat="49.60571" lon="4.96413">
        <ele>226.05</ele>
        <time>2020-05-28T12:25:59Z</time>
      </trkpt>
      <trkpt lat="49.60572" lon="4.96392">
        <ele>229.41</ele>
        <time>2020-05-28T12:26:11Z</time>
      </trkpt>
      <trkpt lat="49.60571" lon="4.96385">
        <ele>229.41</ele>
        <time>2020-05-28T12:26:23Z</time>
      </trkpt>
      <trkpt lat="49.60571" lon="4.96371">
        <ele>230.37</ele>
        <time>2020-05-28T12:26:37Z</time>
      </trkpt>
      <trkpt lat="49.60569" lon="4.9635">
        <ele>229.89</ele>
        <time>2020-05-28T12:26:50Z</time>
      </trkpt>
      <trkpt lat="49.60571" lon="4.96342">
        <ele>229.89</ele>
        <time>2020-05-28T12:26:57Z</time>
      </trkpt>
      <trkpt lat="49.60559" lon="4.9631">
        <ele>219.32</ele>
        <time>2020-05-28T12:27:12Z</time>
      </trkpt>
      <trkpt lat="49.60557" lon="4.96288">
        <ele>217.88</ele>
        <time>2020-05-28T12:27:27Z</time>
      </trkpt>
      <trkpt lat="49.60555" lon="4.96269">
        <ele>216.43</ele>
        <time>2020-05-28T12:27:39Z</time>
      </trkpt>
      <trkpt lat="49.60555" lon="4.96253">
        <ele>216.43</ele>
        <time>2020-05-28T12:27:48Z</time>
      </trkpt>
      <trkpt lat="49.60554" lon="4.96233">
        <ele>218.36</ele>
        <time>2020-05-28T12:28:00Z</time>
      </trkpt>
      <trkpt lat="49.60552" lon="4.9621">
        <ele>218.84</ele>
        <time>2020-05-28T12:28:14Z</time>
      </trkpt>
      <trkpt lat="49.60551" lon="4.96204">
        <ele>218.36</ele>
        <time>2020-05-28T12:28:17Z</time>
      </trkpt>
      <trkpt lat="49.60548" lon="4.96189">
        <ele>217.4</ele>
        <time>2020-05-28T12:28:27Z</time>
      </trkpt>
      <trkpt lat="49.60544" lon="4.96172">
        <ele>217.88</ele>
        <time>2020-05-28T12:28:39Z</time>
      </trkpt>
      <trkpt lat="49.60538" lon="4.96149">
        <ele>217.4</ele>
        <time>2020-05-28T12:28:53Z</time>
      </trkpt>
      <trkpt lat="49.60537" lon="4.96145">
        <ele>217.4</ele>
        <time>2020-05-28T12:28:57Z</time>
      </trkpt>
      <trkpt lat="49.60529" lon="4.96125">
        <ele>216.91</ele>
        <time>2020-05-28T12:29:11Z</time>
      </trkpt>
      <trkpt lat="49.60527" lon="4.96121">
        <ele>216.91</ele>
        <time>2020-05-28T12:29:14Z</time>
      </trkpt>
      <trkpt lat="49.60524" lon="4.96109">
        <ele>218.36</ele>
        <time>2020-05-28T12:29:28Z</time>
      </trkpt>
      <trkpt lat="49.60524" lon="4.96105">
        <ele>218.36</ele>
        <time>2020-05-28T12:29:37Z</time>
      </trkpt>
      <trkpt lat="49.60514" lon="4.96091">
        <ele>217.4</ele>
        <time>2020-05-28T12:29:50Z</time>
      </trkpt>
      <trkpt lat="49.60509" lon="4.96084">
        <ele>215.47</ele>
        <time>2020-05-28T12:29:57Z</time>
      </trkpt>
      <trkpt lat="49.60503" lon="4.96067">
        <ele>214.99</ele>
        <time>2020-05-28T12:30:11Z</time>
      </trkpt>
      <trkpt lat="49.60503" lon="4.96065">
        <ele>214.51</ele>
        <time>2020-05-28T12:30:12Z</time>
      </trkpt>
      <trkpt lat="49.60497" lon="4.96051">
        <ele>216.43</ele>
        <time>2020-05-28T12:30:24Z</time>
      </trkpt>
      <trkpt lat="49.60492" lon="4.96041">
        <ele>214.99</ele>
        <time>2020-05-28T12:30:33Z</time>
      </trkpt>
      <trkpt lat="49.60481" lon="4.96024">
        <ele>213.55</ele>
        <time>2020-05-28T12:30:49Z</time>
      </trkpt>
      <trkpt lat="49.6047" lon="4.96007">
        <ele>212.11</ele>
        <time>2020-05-28T12:31:05Z</time>
      </trkpt>
      <trkpt lat="49.60468" lon="4.96004">
        <ele>212.11</ele>
        <time>2020-05-28T12:31:08Z</time>
      </trkpt>
      <trkpt lat="49.60467" lon="4.96002">
        <ele>211.63</ele>
        <time>2020-05-28T12:31:10Z</time>
      </trkpt>
      <trkpt lat="49.60462" lon="4.95996">
        <ele>211.15</ele>
        <time>2020-05-28T12:31:19Z</time>
      </trkpt>
      <trkpt lat="49.60448" lon="4.95976">
        <ele>208.26</ele>
        <time>2020-05-28T12:31:36Z</time>
      </trkpt>
      <trkpt lat="49.6044" lon="4.95972">
        <ele>206.34</ele>
        <time>2020-05-28T12:31:46Z</time>
      </trkpt>
      <trkpt lat="49.60433" lon="4.95976">
        <ele>205.38</ele>
        <time>2020-05-28T12:31:53Z</time>
      </trkpt>
      <trkpt lat="49.60429" lon="4.95991">
        <ele>206.34</ele>
        <time>2020-05-28T12:32:04Z</time>
      </trkpt>
      <trkpt lat="49.60426" lon="4.96008">
        <ele>208.26</ele>
        <time>2020-05-28T12:32:15Z</time>
      </trkpt>
      <trkpt lat="49.60421" lon="4.96023">
        <ele>210.19</ele>
        <time>2020-05-28T12:32:27Z</time>
      </trkpt>
      <trkpt lat="49.60419" lon="4.96024">
        <ele>210.67</ele>
        <time>2020-05-28T12:32:30Z</time>
      </trkpt>
      <trkpt lat="49.60413" lon="4.96024">
        <ele>210.67</ele>
        <time>2020-05-28T12:32:36Z</time>
      </trkpt>
      <trkpt lat="49.60407" lon="4.96023">
        <ele>211.63</ele>
        <time>2020-05-28T12:32:42Z</time>
      </trkpt>
      <trkpt lat="49.60406" lon="4.96022">
        <ele>212.11</ele>
        <time>2020-05-28T12:32:44Z</time>
      </trkpt>
      <trkpt lat="49.60394" lon="4.96019">
        <ele>214.51</ele>
        <time>2020-05-28T12:32:58Z</time>
      </trkpt>
      <trkpt lat="49.60389" lon="4.96018">
        <ele>215.47</ele>
        <time>2020-05-28T12:33:04Z</time>
      </trkpt>
      <trkpt lat="49.60379" lon="4.96012">
        <ele>214.51</ele>
        <time>2020-05-28T12:33:17Z</time>
      </trkpt>
      <trkpt lat="49.60368" lon="4.96006">
        <ele>215.47</ele>
        <time>2020-05-28T12:33:30Z</time>
      </trkpt>
      <trkpt lat="49.6036" lon="4.96002">
        <ele>215.95</ele>
        <time>2020-05-28T12:33:38Z</time>
      </trkpt>
      <trkpt lat="49.60342" lon="4.96">
        <ele>214.99</ele>
        <time>2020-05-28T12:33:51Z</time>
      </trkpt>
      <trkpt lat="49.60332" lon="4.96">
        <ele>214.99</ele>
        <time>2020-05-28T12:34:05Z</time>
      </trkpt>
      <trkpt lat="49.60331" lon="4.95992">
        <ele>214.03</ele>
        <time>2020-05-28T12:34:19Z</time>
      </trkpt>
      <trkpt lat="49.60331" lon="4.95988">
        <ele>213.55</ele>
        <time>2020-05-28T12:34:23Z</time>
      </trkpt>
      <trkpt lat="49.60327" lon="4.95983">
        <ele>214.03</ele>
        <time>2020-05-28T12:34:30Z</time>
      </trkpt>
      <trkpt lat="49.60325" lon="4.95981">
        <ele>214.03</ele>
        <time>2020-05-28T12:34:43Z</time>
      </trkpt>
      <trkpt lat="49.60325" lon="4.95982">
        <ele>214.51</ele>
        <time>2020-05-28T12:35:02Z</time>
      </trkpt>
      <trkpt lat="49.60325" lon="4.9598">
        <ele>213.55</ele>
        <time>2020-05-28T12:35:30Z</time>
      </trkpt>
      <trkpt lat="49.60327" lon="4.95981">
        <ele>213.55</ele>
        <time>2020-05-28T12:35:52Z</time>
      </trkpt>
      <trkpt lat="49.60329" lon="4.95981">
        <ele>214.51</ele>
        <time>2020-05-28T12:35:58Z</time>
      </trkpt>
      <trkpt lat="49.60328" lon="4.95995">
        <ele>216.91</ele>
        <time>2020-05-28T12:36:09Z</time>
      </trkpt>
      <trkpt lat="49.60331" lon="4.96001">
        <ele>217.88</ele>
        <time>2020-05-28T12:36:15Z</time>
      </trkpt>
      <trkpt lat="49.60337" lon="4.96001">
        <ele>219.32</ele>
        <time>2020-05-28T12:36:27Z</time>
      </trkpt>
      <trkpt lat="49.60341" lon="4.96002">
        <ele>219.32</ele>
        <time>2020-05-28T12:36:44Z</time>
      </trkpt>
      <trkpt lat="49.60343" lon="4.96002">
        <ele>219.32</ele>
        <time>2020-05-28T12:36:46Z</time>
      </trkpt>
      <trkpt lat="49.6035" lon="4.96003">
        <ele>220.28</ele>
        <time>2020-05-28T12:36:59Z</time>
      </trkpt>
      <trkpt lat="49.6035" lon="4.96002">
        <ele>220.28</ele>
        <time>2020-05-28T12:37:14Z</time>
      </trkpt>
      <trkpt lat="49.60352" lon="4.96002">
        <ele>220.76</ele>
        <time>2020-05-28T12:37:41Z</time>
      </trkpt>
      <trkpt lat="49.60351" lon="4.96002">
        <ele>220.76</ele>
        <time>2020-05-28T12:38:10Z</time>
      </trkpt>
      <trkpt lat="49.60355" lon="4.96002">
        <ele>221.24</ele>
        <time>2020-05-28T12:38:38Z</time>
      </trkpt>
      <trkpt lat="49.60355" lon="4.96003">
        <ele>221.24</ele>
        <time>2020-05-28T12:39:03Z</time>
      </trkpt>
      <trkpt lat="49.60354" lon="4.96003">
        <ele>221.24</ele>
        <time>2020-05-28T12:39:30Z</time>
      </trkpt>
      <trkpt lat="49.60353" lon="4.96003">
        <ele>221.72</ele>
        <time>2020-05-28T12:40:04Z</time>
      </trkpt>
      <trkpt lat="49.60353" lon="4.96002">
        <ele>221.72</ele>
        <time>2020-05-28T12:40:38Z</time>
      </trkpt>
      <trkpt lat="49.60352" lon="4.96002">
        <ele>221.24</ele>
        <time>2020-05-28T12:41:08Z</time>
      </trkpt>
      <trkpt lat="49.60352" lon="4.96002">
        <ele>222.2</ele>
        <time>2020-05-28T12:41:34Z</time>
      </trkpt>
      <trkpt lat="49.60352" lon="4.96002">
        <ele>221.72</ele>
        <time>2020-05-28T12:42:05Z</time>
      </trkpt>
      <trkpt lat="49.60353" lon="4.96002">
        <ele>221.72</ele>
        <time>2020-05-28T12:42:29Z</time>
      </trkpt>
      <trkpt lat="49.6036" lon="4.96003">
        <ele>218.84</ele>
        <time>2020-05-28T12:42:50Z</time>
      </trkpt>
      <trkpt lat="49.60358" lon="4.96006">
        <ele>213.55</ele>
        <time>2020-05-28T12:43:16Z</time>
      </trkpt>
      <trkpt lat="49.60356" lon="4.96006">
        <ele>213.55</ele>
        <time>2020-05-28T12:43:45Z</time>
      </trkpt>
      <trkpt lat="49.60356" lon="4.96006">
        <ele>214.03</ele>
        <time>2020-05-28T12:44:11Z</time>
      </trkpt>
      <trkpt lat="49.60358" lon="4.96002">
        <ele>212.59</ele>
        <time>2020-05-28T12:44:37Z</time>
      </trkpt>
      <trkpt lat="49.60357" lon="4.96002">
        <ele>213.07</ele>
        <time>2020-05-28T12:45:06Z</time>
      </trkpt>
      <trkpt lat="49.60356" lon="4.96003">
        <ele>214.03</ele>
        <time>2020-05-28T12:45:39Z</time>
      </trkpt>
      <trkpt lat="49.60353" lon="4.96002">
        <ele>216.91</ele>
        <time>2020-05-28T12:46:06Z</time>
      </trkpt>
      <trkpt lat="49.60346" lon="4.96004">
        <ele>225.09</ele>
        <time>2020-05-28T12:46:37Z</time>
      </trkpt>
      <trkpt lat="49.60348" lon="4.96002">
        <ele>225.09</ele>
        <time>2020-05-28T12:47:08Z</time>
      </trkpt>
      <trkpt lat="49.60348" lon="4.96003">
        <ele>220.28</ele>
        <time>2020-05-28T12:47:27Z</time>
      </trkpt>
      <trkpt lat="49.60344" lon="4.96009">
        <ele>220.76</ele>
        <time>2020-05-28T12:47:40Z</time>
      </trkpt>
      <trkpt lat="49.60345" lon="4.96011">
        <ele>220.28</ele>
        <time>2020-05-28T12:48:09Z</time>
      </trkpt>
      <trkpt lat="49.60345" lon="4.96011">
        <ele>220.28</ele>
        <time>2020-05-28T12:48:35Z</time>
      </trkpt>
      <trkpt lat="49.60345" lon="4.96013">
        <ele>221.24</ele>
        <time>2020-05-28T12:48:58Z</time>
      </trkpt>
      <trkpt lat="49.60348" lon="4.9601">
        <ele>221.24</ele>
        <time>2020-05-28T12:49:21Z</time>
      </trkpt>
      <trkpt lat="49.60353" lon="4.96005">
        <ele>221.72</ele>
        <time>2020-05-28T12:49:38Z</time>
      </trkpt>
      <trkpt lat="49.60353" lon="4.96006">
        <ele>221.24</ele>
        <time>2020-05-28T12:49:57Z</time>
      </trkpt>
      <trkpt lat="49.60354" lon="4.96004">
        <ele>220.28</ele>
        <time>2020-05-28T12:50:28Z</time>
      </trkpt>
      <trkpt lat="49.60366" lon="4.9601">
        <ele>220.76</ele>
        <time>2020-05-28T12:50:45Z</time>
      </trkpt>
      <trkpt lat="49.60367" lon="4.9601">
        <ele>220.76</ele>
        <time>2020-05-28T12:50:46Z</time>
      </trkpt>
      <trkpt lat="49.60383" lon="4.96018">
        <ele>218.84</ele>
        <time>2020-05-28T12:51:03Z</time>
      </trkpt>
      <trkpt lat="49.60399" lon="4.96021">
        <ele>215.47</ele>
        <time>2020-05-28T12:51:19Z</time>
      </trkpt>
      <trkpt lat="49.60414" lon="4.96026">
        <ele>213.55</ele>
        <time>2020-05-28T12:51:37Z</time>
      </trkpt>
      <trkpt lat="49.60424" lon="4.96017">
        <ele>214.03</ele>
        <time>2020-05-28T12:51:51Z</time>
      </trkpt>
      <trkpt lat="49.6043" lon="4.95998">
        <ele>213.55</ele>
        <time>2020-05-28T12:52:07Z</time>
      </trkpt>
      <trkpt lat="49.60432" lon="4.95975">
        <ele>211.15</ele>
        <time>2020-05-28T12:52:24Z</time>
      </trkpt>
      <trkpt lat="49.60423" lon="4.95955">
        <ele>211.15</ele>
        <time>2020-05-28T12:52:37Z</time>
      </trkpt>
      <trkpt lat="49.60409" lon="4.95941">
        <ele>211.15</ele>
        <time>2020-05-28T12:52:54Z</time>
      </trkpt>
      <trkpt lat="49.60398" lon="4.95929">
        <ele>211.63</ele>
        <time>2020-05-28T12:53:09Z</time>
      </trkpt>
      <trkpt lat="49.60387" lon="4.9592">
        <ele>211.15</ele>
        <time>2020-05-28T12:53:22Z</time>
      </trkpt>
      <trkpt lat="49.60383" lon="4.9592">
        <ele>210.67</ele>
        <time>2020-05-28T12:53:26Z</time>
      </trkpt>
      <trkpt lat="49.60371" lon="4.95907">
        <ele>211.15</ele>
        <time>2020-05-28T12:53:41Z</time>
      </trkpt>
      <trkpt lat="49.60369" lon="4.95905">
        <ele>211.15</ele>
        <time>2020-05-28T12:53:44Z</time>
      </trkpt>
      <trkpt lat="49.60358" lon="4.95886">
        <ele>210.67</ele>
        <time>2020-05-28T12:54:00Z</time>
      </trkpt>
      <trkpt lat="49.60352" lon="4.95874">
        <ele>206.82</ele>
        <time>2020-05-28T12:54:12Z</time>
      </trkpt>
      <trkpt lat="49.60347" lon="4.95857">
        <ele>205.86</ele>
        <time>2020-05-28T12:54:25Z</time>
      </trkpt>
      <trkpt lat="49.6034" lon="4.95845">
        <ele>205.38</ele>
        <time>2020-05-28T12:54:35Z</time>
      </trkpt>
      <trkpt lat="49.60339" lon="4.95841">
        <ele>205.38</ele>
        <time>2020-05-28T12:54:38Z</time>
      </trkpt>
      <trkpt lat="49.60327" lon="4.95831">
        <ele>207.78</ele>
        <time>2020-05-28T12:54:52Z</time>
      </trkpt>
      <trkpt lat="49.60318" lon="4.95823">
        <ele>208.74</ele>
        <time>2020-05-28T12:55:08Z</time>
      </trkpt>
      <trkpt lat="49.60314" lon="4.95812">
        <ele>212.59</ele>
        <time>2020-05-28T12:55:18Z</time>
      </trkpt>
      <trkpt lat="49.60317" lon="4.95808">
        <ele>212.11</ele>
        <time>2020-05-28T12:55:23Z</time>
      </trkpt>
      <trkpt lat="49.60321" lon="4.95792">
        <ele>208.74</ele>
        <time>2020-05-28T12:55:38Z</time>
      </trkpt>
      <trkpt lat="49.60322" lon="4.95767">
        <ele>207.3</ele>
        <time>2020-05-28T12:55:55Z</time>
      </trkpt>
      <trkpt lat="49.60323" lon="4.95742">
        <ele>202.98</ele>
        <time>2020-05-28T12:56:12Z</time>
      </trkpt>
      <trkpt lat="49.60325" lon="4.9572">
        <ele>201.53</ele>
        <time>2020-05-28T12:56:26Z</time>
      </trkpt>
      <trkpt lat="49.60325" lon="4.95698">
        <ele>201.05</ele>
        <time>2020-05-28T12:56:40Z</time>
      </trkpt>
      <trkpt lat="49.60326" lon="4.9569">
        <ele>201.05</ele>
        <time>2020-05-28T12:56:46Z</time>
      </trkpt>
      <trkpt lat="49.60333" lon="4.95686">
        <ele>200.09</ele>
        <time>2020-05-28T12:56:54Z</time>
      </trkpt>
      <trkpt lat="49.60338" lon="4.9567">
        <ele>199.13</ele>
        <time>2020-05-28T12:57:05Z</time>
      </trkpt>
      <trkpt lat="49.60331" lon="4.95648">
        <ele>197.21</ele>
        <time>2020-05-28T12:57:20Z</time>
      </trkpt>
      <trkpt lat="49.60324" lon="4.95629">
        <ele>197.21</ele>
        <time>2020-05-28T12:57:34Z</time>
      </trkpt>
      <trkpt lat="49.60316" lon="4.9561">
        <ele>198.17</ele>
        <time>2020-05-28T12:57:47Z</time>
      </trkpt>
      <trkpt lat="49.60312" lon="4.95602">
        <ele>199.13</ele>
        <time>2020-05-28T12:57:54Z</time>
      </trkpt>
      <trkpt lat="49.60304" lon="4.95587">
        <ele>199.13</ele>
        <time>2020-05-28T12:58:06Z</time>
      </trkpt>
      <trkpt lat="49.603" lon="4.95579">
        <ele>198.65</ele>
        <time>2020-05-28T12:58:13Z</time>
      </trkpt>
      <trkpt lat="49.60293" lon="4.95565">
        <ele>198.17</ele>
        <time>2020-05-28T12:58:24Z</time>
      </trkpt>
      <trkpt lat="49.60292" lon="4.9556">
        <ele>197.69</ele>
        <time>2020-05-28T12:58:27Z</time>
      </trkpt>
      <trkpt lat="49.60294" lon="4.95549">
        <ele>196.73</ele>
        <time>2020-05-28T12:58:36Z</time>
      </trkpt>
      <trkpt lat="49.60308" lon="4.9554">
        <ele>198.17</ele>
        <time>2020-05-28T12:58:49Z</time>
      </trkpt>
      <trkpt lat="49.60319" lon="4.95538">
        <ele>200.57</ele>
        <time>2020-05-28T12:59:02Z</time>
      </trkpt>
      <trkpt lat="49.60331" lon="4.95539">
        <ele>204.42</ele>
        <time>2020-05-28T12:59:15Z</time>
      </trkpt>
      <trkpt lat="49.60345" lon="4.95542">
        <ele>210.19</ele>
        <time>2020-05-28T12:59:31Z</time>
      </trkpt>
      <trkpt lat="49.60358" lon="4.95546">
        <ele>211.63</ele>
        <time>2020-05-28T12:59:44Z</time>
      </trkpt>
      <trkpt lat="49.60373" lon="4.95546">
        <ele>210.67</ele>
        <time>2020-05-28T13:00:00Z</time>
      </trkpt>
      <trkpt lat="49.60389" lon="4.95545">
        <ele>210.67</ele>
        <time>2020-05-28T13:00:14Z</time>
      </trkpt>
      <trkpt lat="49.60393" lon="4.95547">
        <ele>209.7</ele>
        <time>2020-05-28T13:00:20Z</time>
      </trkpt>
      <trkpt lat="49.6041" lon="4.95551">
        <ele>209.22</ele>
        <time>2020-05-28T13:00:36Z</time>
      </trkpt>
      <trkpt lat="49.60425" lon="4.95542">
        <ele>210.67</ele>
        <time>2020-05-28T13:00:50Z</time>
      </trkpt>
      <trkpt lat="49.60438" lon="4.9553">
        <ele>211.15</ele>
        <time>2020-05-28T13:01:04Z</time>
      </trkpt>
      <trkpt lat="49.60452" lon="4.95523">
        <ele>210.67</ele>
        <time>2020-05-28T13:01:17Z</time>
      </trkpt>
      <trkpt lat="49.60464" lon="4.95516">
        <ele>210.19</ele>
        <time>2020-05-28T13:01:30Z</time>
      </trkpt>
      <trkpt lat="49.60477" lon="4.95508">
        <ele>210.67</ele>
        <time>2020-05-28T13:01:44Z</time>
      </trkpt>
      <trkpt lat="49.60493" lon="4.95498">
        <ele>208.74</ele>
        <time>2020-05-28T13:01:59Z</time>
      </trkpt>
      <trkpt lat="49.60507" lon="4.9549">
        <ele>208.26</ele>
        <time>2020-05-28T13:02:13Z</time>
      </trkpt>
      <trkpt lat="49.6052" lon="4.95478">
        <ele>208.26</ele>
        <time>2020-05-28T13:02:28Z</time>
      </trkpt>
      <trkpt lat="49.60531" lon="4.95463">
        <ele>205.38</ele>
        <time>2020-05-28T13:02:43Z</time>
      </trkpt>
      <trkpt lat="49.60535" lon="4.9546">
        <ele>204.42</ele>
        <time>2020-05-28T13:02:47Z</time>
      </trkpt>
      <trkpt lat="49.60551" lon="4.95458">
        <ele>203.46</ele>
        <time>2020-05-28T13:03:04Z</time>
      </trkpt>
      <trkpt lat="49.60568" lon="4.95455">
        <ele>201.53</ele>
        <time>2020-05-28T13:03:19Z</time>
      </trkpt>
      <trkpt lat="49.60584" lon="4.95451">
        <ele>199.61</ele>
        <time>2020-05-28T13:03:35Z</time>
      </trkpt>
      <trkpt lat="49.60597" lon="4.95448">
        <ele>200.57</ele>
        <time>2020-05-28T13:03:48Z</time>
      </trkpt>
      <trkpt lat="49.60602" lon="4.95447">
        <ele>201.05</ele>
        <time>2020-05-28T13:03:54Z</time>
      </trkpt>
      <trkpt lat="49.60613" lon="4.95445">
        <ele>202.01</ele>
        <time>2020-05-28T13:04:07Z</time>
      </trkpt>
      <trkpt lat="49.60628" lon="4.9544">
        <ele>202.01</ele>
        <time>2020-05-28T13:04:24Z</time>
      </trkpt>
      <trkpt lat="49.60642" lon="4.95435">
        <ele>199.61</ele>
        <time>2020-05-28T13:04:38Z</time>
      </trkpt>
      <trkpt lat="49.60658" lon="4.9543">
        <ele>198.17</ele>
        <time>2020-05-28T13:04:53Z</time>
      </trkpt>
      <trkpt lat="49.60671" lon="4.95425">
        <ele>197.69</ele>
        <time>2020-05-28T13:05:08Z</time>
      </trkpt>
      <trkpt lat="49.60688" lon="4.95423">
        <ele>196.73</ele>
        <time>2020-05-28T13:05:24Z</time>
      </trkpt>
      <trkpt lat="49.60705" lon="4.95423">
        <ele>194.8</ele>
        <time>2020-05-28T13:05:41Z</time>
      </trkpt>
      <trkpt lat="49.60718" lon="4.95418">
        <ele>192.88</ele>
        <time>2020-05-28T13:05:54Z</time>
      </trkpt>
      <trkpt lat="49.60726" lon="4.95417">
        <ele>191.92</ele>
        <time>2020-05-28T13:06:08Z</time>
      </trkpt>
      <trkpt lat="49.6074" lon="4.95418">
        <ele>193.36</ele>
        <time>2020-05-28T13:06:21Z</time>
      </trkpt>
      <trkpt lat="49.60751" lon="4.95419">
        <ele>193.84</ele>
        <time>2020-05-28T13:06:34Z</time>
      </trkpt>
      <trkpt lat="49.60764" lon="4.95416">
        <ele>193.84</ele>
        <time>2020-05-28T13:06:47Z</time>
      </trkpt>
      <trkpt lat="49.60777" lon="4.95413">
        <ele>191.44</ele>
        <time>2020-05-28T13:07:00Z</time>
      </trkpt>
      <trkpt lat="49.60789" lon="4.95414">
        <ele>190.48</ele>
        <time>2020-05-28T13:07:13Z</time>
      </trkpt>
      <trkpt lat="49.60804" lon="4.95418">
        <ele>191.44</ele>
        <time>2020-05-28T13:07:28Z</time>
      </trkpt>
      <trkpt lat="49.60819" lon="4.95421">
        <ele>190</ele>
        <time>2020-05-28T13:07:43Z</time>
      </trkpt>
      <trkpt lat="49.60831" lon="4.95428">
        <ele>189.52</ele>
        <time>2020-05-28T13:07:59Z</time>
      </trkpt>
      <trkpt lat="49.60832" lon="4.95431">
        <ele>189.52</ele>
        <time>2020-05-28T13:08:02Z</time>
      </trkpt>
      <trkpt lat="49.60837" lon="4.95442">
        <ele>187.59</ele>
        <time>2020-05-28T13:08:16Z</time>
      </trkpt>
      <trkpt lat="49.60835" lon="4.95446">
        <ele>184.71</ele>
        <time>2020-05-28T13:08:28Z</time>
      </trkpt>
      <trkpt lat="49.60835" lon="4.95446">
        <ele>184.23</ele>
        <time>2020-05-28T13:08:43Z</time>
      </trkpt>
      <trkpt lat="49.60851" lon="4.95453">
        <ele>185.19</ele>
        <time>2020-05-28T13:08:58Z</time>
      </trkpt>
      <trkpt lat="49.60864" lon="4.95456">
        <ele>186.63</ele>
        <time>2020-05-28T13:09:13Z</time>
      </trkpt>
      <trkpt lat="49.60878" lon="4.95457">
        <ele>188.08</ele>
        <time>2020-05-28T13:09:27Z</time>
      </trkpt>
      <trkpt lat="49.60894" lon="4.95461">
        <ele>189.52</ele>
        <time>2020-05-28T13:09:41Z</time>
      </trkpt>
      <trkpt lat="49.60905" lon="4.95466">
        <ele>190.96</ele>
        <time>2020-05-28T13:09:55Z</time>
      </trkpt>
      <trkpt lat="49.60919" lon="4.95473">
        <ele>190.96</ele>
        <time>2020-05-28T13:10:10Z</time>
      </trkpt>
      <trkpt lat="49.6093" lon="4.95479">
        <ele>193.36</ele>
        <time>2020-05-28T13:10:23Z</time>
      </trkpt>
      <trkpt lat="49.60942" lon="4.95485">
        <ele>194.32</ele>
        <time>2020-05-28T13:10:36Z</time>
      </trkpt>
      <trkpt lat="49.60958" lon="4.95491">
        <ele>195.28</ele>
        <time>2020-05-28T13:10:52Z</time>
      </trkpt>
      <trkpt lat="49.60972" lon="4.955">
        <ele>193.36</ele>
        <time>2020-05-28T13:11:08Z</time>
      </trkpt>
      <trkpt lat="49.6099" lon="4.95511">
        <ele>195.77</ele>
        <time>2020-05-28T13:11:26Z</time>
      </trkpt>
      <trkpt lat="49.61007" lon="4.95522">
        <ele>197.21</ele>
        <time>2020-05-28T13:11:45Z</time>
      </trkpt>
      <trkpt lat="49.61024" lon="4.95532">
        <ele>198.65</ele>
        <time>2020-05-28T13:12:03Z</time>
      </trkpt>
      <trkpt lat="49.61038" lon="4.95541">
        <ele>198.65</ele>
        <time>2020-05-28T13:12:20Z</time>
      </trkpt>
      <trkpt lat="49.61056" lon="4.95549">
        <ele>201.05</ele>
        <time>2020-05-28T13:12:38Z</time>
      </trkpt>
      <trkpt lat="49.61069" lon="4.95548">
        <ele>201.53</ele>
        <time>2020-05-28T13:12:52Z</time>
      </trkpt>
      <trkpt lat="49.61072" lon="4.95546">
        <ele>201.53</ele>
        <time>2020-05-28T13:12:56Z</time>
      </trkpt>
      <trkpt lat="49.61085" lon="4.95533">
        <ele>201.05</ele>
        <time>2020-05-28T13:13:11Z</time>
      </trkpt>
      <trkpt lat="49.61098" lon="4.95529">
        <ele>202.98</ele>
        <time>2020-05-28T13:13:25Z</time>
      </trkpt>
      <trkpt lat="49.61099" lon="4.95528">
        <ele>203.46</ele>
        <time>2020-05-28T13:13:26Z</time>
      </trkpt>
      <trkpt lat="49.61115" lon="4.9553">
        <ele>205.38</ele>
        <time>2020-05-28T13:13:42Z</time>
      </trkpt>
      <trkpt lat="49.61129" lon="4.95535">
        <ele>206.82</ele>
        <time>2020-05-28T13:13:57Z</time>
      </trkpt>
      <trkpt lat="49.61147" lon="4.95541">
        <ele>208.26</ele>
        <time>2020-05-28T13:14:13Z</time>
      </trkpt>
      <trkpt lat="49.61164" lon="4.95547">
        <ele>209.22</ele>
        <time>2020-05-28T13:14:31Z</time>
      </trkpt>
      <trkpt lat="49.61178" lon="4.95554">
        <ele>211.15</ele>
        <time>2020-05-28T13:14:48Z</time>
      </trkpt>
      <trkpt lat="49.61192" lon="4.95558">
        <ele>210.67</ele>
        <time>2020-05-28T13:15:02Z</time>
      </trkpt>
      <trkpt lat="49.61208" lon="4.95564">
        <ele>212.11</ele>
        <time>2020-05-28T13:15:19Z</time>
      </trkpt>
      <trkpt lat="49.61228" lon="4.95573">
        <ele>213.07</ele>
        <time>2020-05-28T13:15:37Z</time>
      </trkpt>
      <trkpt lat="49.61242" lon="4.95578">
        <ele>214.99</ele>
        <time>2020-05-28T13:15:52Z</time>
      </trkpt>
      <trkpt lat="49.61253" lon="4.95582">
        <ele>214.03</ele>
        <time>2020-05-28T13:16:05Z</time>
      </trkpt>
      <trkpt lat="49.61263" lon="4.95584">
        <ele>211.15</ele>
        <time>2020-05-28T13:16:21Z</time>
      </trkpt>
      <trkpt lat="49.61281" lon="4.95592">
        <ele>205.86</ele>
        <time>2020-05-28T13:16:38Z</time>
      </trkpt>
      <trkpt lat="49.61297" lon="4.95606">
        <ele>203.46</ele>
        <time>2020-05-28T13:16:52Z</time>
      </trkpt>
      <trkpt lat="49.61312" lon="4.95619">
        <ele>203.94</ele>
        <time>2020-05-28T13:17:09Z</time>
      </trkpt>
      <trkpt lat="49.61322" lon="4.95629">
        <ele>202.98</ele>
        <time>2020-05-28T13:17:22Z</time>
      </trkpt>
      <trkpt lat="49.61326" lon="4.95633">
        <ele>202.49</ele>
        <time>2020-05-28T13:17:28Z</time>
      </trkpt>
      <trkpt lat="49.61328" lon="4.95638">
        <ele>202.01</ele>
        <time>2020-05-28T13:17:32Z</time>
      </trkpt>
      <trkpt lat="49.6133" lon="4.95658">
        <ele>202.98</ele>
        <time>2020-05-28T13:17:47Z</time>
      </trkpt>
      <trkpt lat="49.61332" lon="4.95667">
        <ele>204.42</ele>
        <time>2020-05-28T13:17:54Z</time>
      </trkpt>
      <trkpt lat="49.61333" lon="4.95677">
        <ele>206.82</ele>
        <time>2020-05-28T13:18:02Z</time>
      </trkpt>
      <trkpt lat="49.61337" lon="4.95688">
        <ele>208.26</ele>
        <time>2020-05-28T13:18:11Z</time>
      </trkpt>
      <trkpt lat="49.61346" lon="4.95712">
        <ele>210.19</ele>
        <time>2020-05-28T13:18:26Z</time>
      </trkpt>
      <trkpt lat="49.61349" lon="4.95716">
        <ele>210.67</ele>
        <time>2020-05-28T13:18:31Z</time>
      </trkpt>
      <trkpt lat="49.61362" lon="4.95735">
        <ele>211.15</ele>
        <time>2020-05-28T13:18:44Z</time>
      </trkpt>
      <trkpt lat="49.61368" lon="4.9574">
        <ele>211.15</ele>
        <time>2020-05-28T13:18:51Z</time>
      </trkpt>
      <trkpt lat="49.6137" lon="4.95742">
        <ele>211.63</ele>
        <time>2020-05-28T13:18:53Z</time>
      </trkpt>
      <trkpt lat="49.61382" lon="4.95755">
        <ele>210.19</ele>
        <time>2020-05-28T13:19:07Z</time>
      </trkpt>
      <trkpt lat="49.61391" lon="4.95765">
        <ele>209.22</ele>
        <time>2020-05-28T13:19:20Z</time>
      </trkpt>
      <trkpt lat="49.61404" lon="4.95773">
        <ele>206.34</ele>
        <time>2020-05-28T13:19:34Z</time>
      </trkpt>
      <trkpt lat="49.61408" lon="4.95768">
        <ele>202.49</ele>
        <time>2020-05-28T13:19:51Z</time>
      </trkpt>
      <trkpt lat="49.61408" lon="4.95769">
        <ele>196.73</ele>
        <time>2020-05-28T13:20:30Z</time>
      </trkpt>
      <trkpt lat="49.6141" lon="4.95769">
        <ele>196.25</ele>
        <time>2020-05-28T13:20:47Z</time>
      </trkpt>
      <trkpt lat="49.61413" lon="4.95772">
        <ele>194.8</ele>
        <time>2020-05-28T13:21:00Z</time>
      </trkpt>
      <trkpt lat="49.6142" lon="4.95776">
        <ele>192.88</ele>
        <time>2020-05-28T13:21:15Z</time>
      </trkpt>
      <trkpt lat="49.61421" lon="4.95774">
        <ele>191.92</ele>
        <time>2020-05-28T13:21:42Z</time>
      </trkpt>
      <trkpt lat="49.61419" lon="4.95772">
        <ele>190.48</ele>
        <time>2020-05-28T13:21:55Z</time>
      </trkpt>
      <trkpt lat="49.61418" lon="4.9577">
        <ele>189.52</ele>
        <time>2020-05-28T13:22:11Z</time>
      </trkpt>
      <trkpt lat="49.61418" lon="4.9577">
        <ele>190.48</ele>
        <time>2020-05-28T13:22:39Z</time>
      </trkpt>
      <trkpt lat="49.61418" lon="4.95771">
        <ele>190.48</ele>
        <time>2020-05-28T13:23:05Z</time>
      </trkpt>
      <trkpt lat="49.61418" lon="4.95771">
        <ele>190.48</ele>
        <time>2020-05-28T13:23:27Z</time>
      </trkpt>
      <trkpt lat="49.61418" lon="4.95771">
        <ele>190.48</ele>
        <time>2020-05-28T13:24:05Z</time>
      </trkpt>
      <trkpt lat="49.61417" lon="4.95772">
        <ele>190</ele>
        <time>2020-05-28T13:24:29Z</time>
      </trkpt>
      <trkpt lat="49.61416" lon="4.95772">
        <ele>189.04</ele>
        <time>2020-05-28T13:25:01Z</time>
      </trkpt>
      <trkpt lat="49.61415" lon="4.95772">
        <ele>189.52</ele>
        <time>2020-05-28T13:25:30Z</time>
      </trkpt>
      <trkpt lat="49.61415" lon="4.95771">
        <ele>190.48</ele>
        <time>2020-05-28T13:26:01Z</time>
      </trkpt>
      <trkpt lat="49.61416" lon="4.95771">
        <ele>190.48</ele>
        <time>2020-05-28T13:26:27Z</time>
      </trkpt>
      <trkpt lat="49.61416" lon="4.9577">
        <ele>190.96</ele>
        <time>2020-05-28T13:26:56Z</time>
      </trkpt>
      <trkpt lat="49.61416" lon="4.9577">
        <ele>190.96</ele>
        <time>2020-05-28T13:27:25Z</time>
      </trkpt>
      <trkpt lat="49.61416" lon="4.9577">
        <ele>190.96</ele>
        <time>2020-05-28T13:27:46Z</time>
      </trkpt>
      <trkpt lat="49.61416" lon="4.9577">
        <ele>190.48</ele>
        <time>2020-05-28T13:28:12Z</time>
      </trkpt>
      <trkpt lat="49.61417" lon="4.95769">
        <ele>190.48</ele>
        <time>2020-05-28T13:28:44Z</time>
      </trkpt>
      <trkpt lat="49.61417" lon="4.95769">
        <ele>190</ele>
        <time>2020-05-28T13:29:22Z</time>
      </trkpt>
      <trkpt lat="49.61422" lon="4.95777">
        <ele>191.44</ele>
        <time>2020-05-28T13:29:34Z</time>
      </trkpt>
      <trkpt lat="49.6143" lon="4.95784">
        <ele>192.88</ele>
        <time>2020-05-28T13:29:44Z</time>
      </trkpt>
      <trkpt lat="49.61444" lon="4.95798">
        <ele>195.28</ele>
        <time>2020-05-28T13:29:59Z</time>
      </trkpt>
      <trkpt lat="49.61455" lon="4.95809">
        <ele>197.69</ele>
        <time>2020-05-28T13:30:13Z</time>
      </trkpt>
      <trkpt lat="49.61468" lon="4.95819">
        <ele>199.13</ele>
        <time>2020-05-28T13:30:27Z</time>
      </trkpt>
      <trkpt lat="49.61479" lon="4.95828">
        <ele>201.05</ele>
        <time>2020-05-28T13:30:41Z</time>
      </trkpt>
      <trkpt lat="49.61491" lon="4.95837">
        <ele>203.46</ele>
        <time>2020-05-28T13:30:57Z</time>
      </trkpt>
      <trkpt lat="49.61506" lon="4.95848">
        <ele>207.3</ele>
        <time>2020-05-28T13:31:12Z</time>
      </trkpt>
      <trkpt lat="49.61524" lon="4.95854">
        <ele>211.15</ele>
        <time>2020-05-28T13:31:30Z</time>
      </trkpt>
      <trkpt lat="49.61528" lon="4.95857">
        <ele>211.63</ele>
        <time>2020-05-28T13:31:33Z</time>
      </trkpt>
      <trkpt lat="49.61534" lon="4.95862">
        <ele>212.59</ele>
        <time>2020-05-28T13:31:41Z</time>
      </trkpt>
      <trkpt lat="49.61551" lon="4.95872">
        <ele>212.59</ele>
        <time>2020-05-28T13:32:00Z</time>
      </trkpt>
      <trkpt lat="49.61568" lon="4.95882">
        <ele>212.59</ele>
        <time>2020-05-28T13:32:17Z</time>
      </trkpt>
      <trkpt lat="49.61586" lon="4.95893">
        <ele>210.67</ele>
        <time>2020-05-28T13:32:33Z</time>
      </trkpt>
      <trkpt lat="49.61601" lon="4.95905">
        <ele>211.15</ele>
        <time>2020-05-28T13:32:47Z</time>
      </trkpt>
      <trkpt lat="49.61616" lon="4.95918">
        <ele>211.15</ele>
        <time>2020-05-28T13:33:03Z</time>
      </trkpt>
      <trkpt lat="49.61625" lon="4.95924">
        <ele>212.59</ele>
        <time>2020-05-28T13:33:12Z</time>
      </trkpt>
      <trkpt lat="49.61631" lon="4.95928">
        <ele>213.55</ele>
        <time>2020-05-28T13:33:17Z</time>
      </trkpt>
      <trkpt lat="49.61642" lon="4.95937">
        <ele>214.99</ele>
        <time>2020-05-28T13:33:32Z</time>
      </trkpt>
      <trkpt lat="49.61653" lon="4.95942">
        <ele>214.99</ele>
        <time>2020-05-28T13:33:46Z</time>
      </trkpt>
      <trkpt lat="49.61665" lon="4.95951">
        <ele>215.95</ele>
        <time>2020-05-28T13:34:00Z</time>
      </trkpt>
      <trkpt lat="49.61668" lon="4.95954">
        <ele>215.47</ele>
        <time>2020-05-28T13:34:04Z</time>
      </trkpt>
      <trkpt lat="49.61673" lon="4.95962">
        <ele>216.43</ele>
        <time>2020-05-28T13:34:12Z</time>
      </trkpt>
      <trkpt lat="49.61691" lon="4.95973">
        <ele>214.99</ele>
        <time>2020-05-28T13:34:30Z</time>
      </trkpt>
      <trkpt lat="49.61704" lon="4.95984">
        <ele>214.03</ele>
        <time>2020-05-28T13:34:45Z</time>
      </trkpt>
      <trkpt lat="49.61718" lon="4.95991">
        <ele>212.59</ele>
        <time>2020-05-28T13:35:00Z</time>
      </trkpt>
      <trkpt lat="49.61732" lon="4.95996">
        <ele>210.19</ele>
        <time>2020-05-28T13:35:14Z</time>
      </trkpt>
      <trkpt lat="49.61747" lon="4.96001">
        <ele>209.22</ele>
        <time>2020-05-28T13:35:27Z</time>
      </trkpt>
      <trkpt lat="49.61763" lon="4.96007">
        <ele>208.26</ele>
        <time>2020-05-28T13:35:43Z</time>
      </trkpt>
      <trkpt lat="49.61778" lon="4.96012">
        <ele>205.38</ele>
        <time>2020-05-28T13:35:58Z</time>
      </trkpt>
      <trkpt lat="49.61793" lon="4.96019">
        <ele>203.46</ele>
        <time>2020-05-28T13:36:13Z</time>
      </trkpt>
      <trkpt lat="49.61809" lon="4.96025">
        <ele>201.05</ele>
        <time>2020-05-28T13:36:28Z</time>
      </trkpt>
      <trkpt lat="49.61826" lon="4.96033">
        <ele>199.61</ele>
        <time>2020-05-28T13:36:46Z</time>
      </trkpt>
      <trkpt lat="49.61844" lon="4.96036">
        <ele>198.65</ele>
        <time>2020-05-28T13:37:03Z</time>
      </trkpt>
      <trkpt lat="49.61858" lon="4.96035">
        <ele>196.73</ele>
        <time>2020-05-28T13:37:19Z</time>
      </trkpt>
      <trkpt lat="49.61871" lon="4.96037">
        <ele>193.36</ele>
        <time>2020-05-28T13:37:35Z</time>
      </trkpt>
      <trkpt lat="49.61886" lon="4.96042">
        <ele>190.48</ele>
        <time>2020-05-28T13:37:50Z</time>
      </trkpt>
      <trkpt lat="49.61904" lon="4.96043">
        <ele>190</ele>
        <time>2020-05-28T13:38:06Z</time>
      </trkpt>
      <trkpt lat="49.61919" lon="4.96043">
        <ele>190.48</ele>
        <time>2020-05-28T13:38:20Z</time>
      </trkpt>
      <trkpt lat="49.61936" lon="4.96047">
        <ele>189.52</ele>
        <time>2020-05-28T13:38:36Z</time>
      </trkpt>
      <trkpt lat="49.61952" lon="4.96049">
        <ele>187.59</ele>
        <time>2020-05-28T13:38:50Z</time>
      </trkpt>
      <trkpt lat="49.61967" lon="4.96047">
        <ele>184.71</ele>
        <time>2020-05-28T13:39:04Z</time>
      </trkpt>
      <trkpt lat="49.61981" lon="4.96053">
        <ele>184.23</ele>
        <time>2020-05-28T13:39:18Z</time>
      </trkpt>
      <trkpt lat="49.61996" lon="4.96053">
        <ele>182.79</ele>
        <time>2020-05-28T13:39:32Z</time>
      </trkpt>
      <trkpt lat="49.62009" lon="4.96051">
        <ele>183.27</ele>
        <time>2020-05-28T13:39:46Z</time>
      </trkpt>
      <trkpt lat="49.62022" lon="4.9605">
        <ele>183.75</ele>
        <time>2020-05-28T13:39:58Z</time>
      </trkpt>
      <trkpt lat="49.6204" lon="4.96048">
        <ele>184.23</ele>
        <time>2020-05-28T13:40:14Z</time>
      </trkpt>
      <trkpt lat="49.62055" lon="4.96047">
        <ele>184.23</ele>
        <time>2020-05-28T13:40:28Z</time>
      </trkpt>
      <trkpt lat="49.62072" lon="4.96046">
        <ele>181.83</ele>
        <time>2020-05-28T13:40:44Z</time>
      </trkpt>
      <trkpt lat="49.62078" lon="4.96044">
        <ele>180.38</ele>
        <time>2020-05-28T13:40:52Z</time>
      </trkpt>
      <trkpt lat="49.62083" lon="4.96041">
        <ele>179.9</ele>
        <time>2020-05-28T13:40:56Z</time>
      </trkpt>
      <trkpt lat="49.62099" lon="4.96033">
        <ele>179.42</ele>
        <time>2020-05-28T13:41:12Z</time>
      </trkpt>
      <trkpt lat="49.62115" lon="4.96028">
        <ele>178.94</ele>
        <time>2020-05-28T13:41:28Z</time>
      </trkpt>
      <trkpt lat="49.62131" lon="4.96024">
        <ele>181.35</ele>
        <time>2020-05-28T13:41:45Z</time>
      </trkpt>
      <trkpt lat="49.62146" lon="4.96021">
        <ele>182.79</ele>
        <time>2020-05-28T13:42:01Z</time>
      </trkpt>
      <trkpt lat="49.62157" lon="4.96022">
        <ele>182.31</ele>
        <time>2020-05-28T13:42:14Z</time>
      </trkpt>
      <trkpt lat="49.62173" lon="4.96022">
        <ele>180.38</ele>
        <time>2020-05-28T13:42:28Z</time>
      </trkpt>
      <trkpt lat="49.62189" lon="4.96019">
        <ele>177.5</ele>
        <time>2020-05-28T13:42:44Z</time>
      </trkpt>
      <trkpt lat="49.62197" lon="4.96017">
        <ele>177.5</ele>
        <time>2020-05-28T13:42:53Z</time>
      </trkpt>
      <trkpt lat="49.62211" lon="4.96015">
        <ele>177.02</ele>
        <time>2020-05-28T13:43:06Z</time>
      </trkpt>
      <trkpt lat="49.62221" lon="4.96009">
        <ele>174.62</ele>
        <time>2020-05-28T13:43:17Z</time>
      </trkpt>
      <trkpt lat="49.62232" lon="4.95992">
        <ele>172.21</ele>
        <time>2020-05-28T13:43:32Z</time>
      </trkpt>
      <trkpt lat="49.62243" lon="4.95977">
        <ele>174.14</ele>
        <time>2020-05-28T13:43:47Z</time>
      </trkpt>
      <trkpt lat="49.62251" lon="4.95969">
        <ele>177.02</ele>
        <time>2020-05-28T13:43:58Z</time>
      </trkpt>
      <trkpt lat="49.62256" lon="4.95962">
        <ele>177.5</ele>
        <time>2020-05-28T13:44:05Z</time>
      </trkpt>
      <trkpt lat="49.62268" lon="4.95947">
        <ele>177.5</ele>
        <time>2020-05-28T13:44:21Z</time>
      </trkpt>
      <trkpt lat="49.62272" lon="4.95942">
        <ele>178.46</ele>
        <time>2020-05-28T13:44:27Z</time>
      </trkpt>
      <trkpt lat="49.62285" lon="4.95932">
        <ele>180.87</ele>
        <time>2020-05-28T13:44:44Z</time>
      </trkpt>
      <trkpt lat="49.62299" lon="4.95916">
        <ele>181.83</ele>
        <time>2020-05-28T13:45:00Z</time>
      </trkpt>
      <trkpt lat="49.6231" lon="4.95908">
        <ele>180.87</ele>
        <time>2020-05-28T13:45:12Z</time>
      </trkpt>
      <trkpt lat="49.6232" lon="4.95899">
        <ele>180.38</ele>
        <time>2020-05-28T13:45:24Z</time>
      </trkpt>
      <trkpt lat="49.62327" lon="4.95886">
        <ele>182.79</ele>
        <time>2020-05-28T13:45:35Z</time>
      </trkpt>
      <trkpt lat="49.62339" lon="4.9588">
        <ele>185.19</ele>
        <time>2020-05-28T13:45:49Z</time>
      </trkpt>
      <trkpt lat="49.62341" lon="4.95885">
        <ele>185.67</ele>
        <time>2020-05-28T13:45:53Z</time>
      </trkpt>
      <trkpt lat="49.62351" lon="4.95905">
        <ele>187.59</ele>
        <time>2020-05-28T13:46:08Z</time>
      </trkpt>
      <trkpt lat="49.62351" lon="4.95906">
        <ele>188.08</ele>
        <time>2020-05-28T13:46:09Z</time>
      </trkpt>
      <trkpt lat="49.62359" lon="4.95927">
        <ele>189.04</ele>
        <time>2020-05-28T13:46:24Z</time>
      </trkpt>
      <trkpt lat="49.62361" lon="4.9593">
        <ele>189.52</ele>
        <time>2020-05-28T13:46:26Z</time>
      </trkpt>
      <trkpt lat="49.62366" lon="4.95951">
        <ele>188.08</ele>
        <time>2020-05-28T13:46:41Z</time>
      </trkpt>
      <trkpt lat="49.6237" lon="4.95971">
        <ele>186.15</ele>
        <time>2020-05-28T13:46:55Z</time>
      </trkpt>
      <trkpt lat="49.62372" lon="4.9598">
        <ele>185.67</ele>
        <time>2020-05-28T13:47:02Z</time>
      </trkpt>
      <trkpt lat="49.62377" lon="4.96003">
        <ele>184.23</ele>
        <time>2020-05-28T13:47:18Z</time>
      </trkpt>
      <trkpt lat="49.62384" lon="4.96023">
        <ele>181.83</ele>
        <time>2020-05-28T13:47:32Z</time>
      </trkpt>
      <trkpt lat="49.62389" lon="4.96041">
        <ele>183.27</ele>
        <time>2020-05-28T13:47:44Z</time>
      </trkpt>
      <trkpt lat="49.6239" lon="4.96045">
        <ele>183.27</ele>
        <time>2020-05-28T13:47:48Z</time>
      </trkpt>
      <trkpt lat="49.62404" lon="4.96063">
        <ele>183.27</ele>
        <time>2020-05-28T13:48:05Z</time>
      </trkpt>
      <trkpt lat="49.62413" lon="4.96069">
        <ele>182.79</ele>
        <time>2020-05-28T13:48:16Z</time>
      </trkpt>
      <trkpt lat="49.62424" lon="4.96077">
        <ele>183.75</ele>
        <time>2020-05-28T13:48:29Z</time>
      </trkpt>
      <trkpt lat="49.62437" lon="4.96086">
        <ele>184.71</ele>
        <time>2020-05-28T13:48:42Z</time>
      </trkpt>
      <trkpt lat="49.62452" lon="4.96094">
        <ele>186.15</ele>
        <time>2020-05-28T13:48:58Z</time>
      </trkpt>
      <trkpt lat="49.62463" lon="4.961">
        <ele>188.56</ele>
        <time>2020-05-28T13:49:11Z</time>
      </trkpt>
      <trkpt lat="49.62476" lon="4.96107">
        <ele>191.44</ele>
        <time>2020-05-28T13:49:25Z</time>
      </trkpt>
      <trkpt lat="49.62492" lon="4.96109">
        <ele>193.84</ele>
        <time>2020-05-28T13:49:41Z</time>
      </trkpt>
      <trkpt lat="49.62506" lon="4.96111">
        <ele>195.77</ele>
        <time>2020-05-28T13:49:55Z</time>
      </trkpt>
      <trkpt lat="49.62509" lon="4.96111">
        <ele>196.25</ele>
        <time>2020-05-28T13:49:59Z</time>
      </trkpt>
      <trkpt lat="49.62525" lon="4.96115">
        <ele>197.21</ele>
        <time>2020-05-28T13:50:14Z</time>
      </trkpt>
      <trkpt lat="49.62527" lon="4.96114">
        <ele>197.69</ele>
        <time>2020-05-28T13:50:17Z</time>
      </trkpt>
      <trkpt lat="49.62541" lon="4.96111">
        <ele>199.61</ele>
        <time>2020-05-28T13:50:33Z</time>
      </trkpt>
      <trkpt lat="49.62554" lon="4.96109">
        <ele>199.13</ele>
        <time>2020-05-28T13:50:49Z</time>
      </trkpt>
      <trkpt lat="49.62574" lon="4.96101">
        <ele>200.09</ele>
        <time>2020-05-28T13:51:04Z</time>
      </trkpt>
      <trkpt lat="49.62587" lon="4.96096">
        <ele>199.61</ele>
        <time>2020-05-28T13:51:18Z</time>
      </trkpt>
      <trkpt lat="49.62601" lon="4.96097">
        <ele>196.73</ele>
        <time>2020-05-28T13:51:34Z</time>
      </trkpt>
      <trkpt lat="49.62613" lon="4.96102">
        <ele>196.25</ele>
        <time>2020-05-28T13:51:51Z</time>
      </trkpt>
      <trkpt lat="49.62619" lon="4.96106">
        <ele>196.73</ele>
        <time>2020-05-28T13:51:58Z</time>
      </trkpt>
      <trkpt lat="49.62633" lon="4.96118">
        <ele>195.28</ele>
        <time>2020-05-28T13:52:15Z</time>
      </trkpt>
      <trkpt lat="49.62644" lon="4.96131">
        <ele>191.92</ele>
        <time>2020-05-28T13:52:35Z</time>
      </trkpt>
      <trkpt lat="49.62656" lon="4.96147">
        <ele>187.59</ele>
        <time>2020-05-28T13:52:53Z</time>
      </trkpt>
      <trkpt lat="49.62664" lon="4.96161">
        <ele>187.11</ele>
        <time>2020-05-28T13:53:07Z</time>
      </trkpt>
      <trkpt lat="49.62674" lon="4.96177">
        <ele>183.27</ele>
        <time>2020-05-28T13:53:22Z</time>
      </trkpt>
      <trkpt lat="49.62686" lon="4.96194">
        <ele>181.83</ele>
        <time>2020-05-28T13:53:38Z</time>
      </trkpt>
      <trkpt lat="49.62687" lon="4.96196">
        <ele>181.35</ele>
        <time>2020-05-28T13:53:40Z</time>
      </trkpt>
      <trkpt lat="49.62689" lon="4.96203">
        <ele>180.87</ele>
        <time>2020-05-28T13:53:44Z</time>
      </trkpt>
      <trkpt lat="49.62701" lon="4.96221">
        <ele>180.87</ele>
        <time>2020-05-28T13:54:00Z</time>
      </trkpt>
      <trkpt lat="49.62713" lon="4.96228">
        <ele>181.83</ele>
        <time>2020-05-28T13:54:13Z</time>
      </trkpt>
      <trkpt lat="49.62725" lon="4.96236">
        <ele>183.27</ele>
        <time>2020-05-28T13:54:26Z</time>
      </trkpt>
      <trkpt lat="49.62739" lon="4.96245">
        <ele>181.35</ele>
        <time>2020-05-28T13:54:40Z</time>
      </trkpt>
      <trkpt lat="49.62752" lon="4.96253">
        <ele>180.87</ele>
        <time>2020-05-28T13:54:54Z</time>
      </trkpt>
      <trkpt lat="49.62765" lon="4.96264">
        <ele>180.38</ele>
        <time>2020-05-28T13:55:08Z</time>
      </trkpt>
      <trkpt lat="49.62773" lon="4.9627">
        <ele>180.38</ele>
        <time>2020-05-28T13:55:17Z</time>
      </trkpt>
      <trkpt lat="49.62784" lon="4.96277">
        <ele>179.42</ele>
        <time>2020-05-28T13:55:29Z</time>
      </trkpt>
      <trkpt lat="49.62786" lon="4.96278">
        <ele>179.9</ele>
        <time>2020-05-28T13:55:31Z</time>
      </trkpt>
      <trkpt lat="49.62792" lon="4.96283">
        <ele>180.87</ele>
        <time>2020-05-28T13:55:38Z</time>
      </trkpt>
      <trkpt lat="49.62795" lon="4.96285">
        <ele>181.35</ele>
        <time>2020-05-28T13:55:41Z</time>
      </trkpt>
      <trkpt lat="49.62807" lon="4.96292">
        <ele>180.87</ele>
        <time>2020-05-28T13:55:53Z</time>
      </trkpt>
      <trkpt lat="49.62818" lon="4.96298">
        <ele>181.35</ele>
        <time>2020-05-28T13:56:06Z</time>
      </trkpt>
      <trkpt lat="49.62827" lon="4.96299">
        <ele>180.87</ele>
        <time>2020-05-28T13:56:18Z</time>
      </trkpt>
      <trkpt lat="49.62828" lon="4.963">
        <ele>181.83</ele>
        <time>2020-05-28T13:56:30Z</time>
      </trkpt>
      <trkpt lat="49.62829" lon="4.96298">
        <ele>179.9</ele>
        <time>2020-05-28T13:56:41Z</time>
      </trkpt>
      <trkpt lat="49.62845" lon="4.96304">
        <ele>180.87</ele>
        <time>2020-05-28T13:56:56Z</time>
      </trkpt>
      <trkpt lat="49.6286" lon="4.96311">
        <ele>181.35</ele>
        <time>2020-05-28T13:57:10Z</time>
      </trkpt>
      <trkpt lat="49.62866" lon="4.96315">
        <ele>180.87</ele>
        <time>2020-05-28T13:57:18Z</time>
      </trkpt>
      <trkpt lat="49.62878" lon="4.96326">
        <ele>183.27</ele>
        <time>2020-05-28T13:57:32Z</time>
      </trkpt>
      <trkpt lat="49.6289" lon="4.96335">
        <ele>184.71</ele>
        <time>2020-05-28T13:57:45Z</time>
      </trkpt>
      <trkpt lat="49.62904" lon="4.96346">
        <ele>186.15</ele>
        <time>2020-05-28T13:58:00Z</time>
      </trkpt>
      <trkpt lat="49.62916" lon="4.96358">
        <ele>184.23</ele>
        <time>2020-05-28T13:58:15Z</time>
      </trkpt>
      <trkpt lat="49.62926" lon="4.96361">
        <ele>181.83</ele>
        <time>2020-05-28T13:58:27Z</time>
      </trkpt>
      <trkpt lat="49.62936" lon="4.96369">
        <ele>178.94</ele>
        <time>2020-05-28T13:58:42Z</time>
      </trkpt>
      <trkpt lat="49.62954" lon="4.9638">
        <ele>176.06</ele>
        <time>2020-05-28T13:58:59Z</time>
      </trkpt>
      <trkpt lat="49.62963" lon="4.96387">
        <ele>175.1</ele>
        <time>2020-05-28T13:59:15Z</time>
      </trkpt>
      <trkpt lat="49.62974" lon="4.96396">
        <ele>175.1</ele>
        <time>2020-05-28T13:59:31Z</time>
      </trkpt>
      <trkpt lat="49.62984" lon="4.96407">
        <ele>175.58</ele>
        <time>2020-05-28T13:59:48Z</time>
      </trkpt>
      <trkpt lat="49.62984" lon="4.96408">
        <ele>175.58</ele>
        <time>2020-05-28T14:00:12Z</time>
      </trkpt>
      <trkpt lat="49.62984" lon="4.96407">
        <ele>175.58</ele>
        <time>2020-05-28T14:00:47Z</time>
      </trkpt>
      <trkpt lat="49.6298" lon="4.96407">
        <ele>175.58</ele>
        <time>2020-05-28T14:01:10Z</time>
      </trkpt>
      <trkpt lat="49.62981" lon="4.96408">
        <ele>175.1</ele>
        <time>2020-05-28T14:01:45Z</time>
      </trkpt>
      <trkpt lat="49.62981" lon="4.96407">
        <ele>175.1</ele>
        <time>2020-05-28T14:02:22Z</time>
      </trkpt>
      <trkpt lat="49.62981" lon="4.96408">
        <ele>174.62</ele>
        <time>2020-05-28T14:02:48Z</time>
      </trkpt>
      <trkpt lat="49.62981" lon="4.96407">
        <ele>174.62</ele>
        <time>2020-05-28T14:03:17Z</time>
      </trkpt>
      <trkpt lat="49.62983" lon="4.96406">
        <ele>174.14</ele>
        <time>2020-05-28T14:03:43Z</time>
      </trkpt>
      <trkpt lat="49.62989" lon="4.9641">
        <ele>173.66</ele>
        <time>2020-05-28T14:04:05Z</time>
      </trkpt>
      <trkpt lat="49.63003" lon="4.96419">
        <ele>177.02</ele>
        <time>2020-05-28T14:04:22Z</time>
      </trkpt>
      <trkpt lat="49.63014" lon="4.96426">
        <ele>178.94</ele>
        <time>2020-05-28T14:04:34Z</time>
      </trkpt>
      <trkpt lat="49.63029" lon="4.96435">
        <ele>178.94</ele>
        <time>2020-05-28T14:04:48Z</time>
      </trkpt>
      <trkpt lat="49.63044" lon="4.96446">
        <ele>178.46</ele>
        <time>2020-05-28T14:05:03Z</time>
      </trkpt>
      <trkpt lat="49.63058" lon="4.96454">
        <ele>177.5</ele>
        <time>2020-05-28T14:05:17Z</time>
      </trkpt>
      <trkpt lat="49.63071" lon="4.96463">
        <ele>177.02</ele>
        <time>2020-05-28T14:05:32Z</time>
      </trkpt>
      <trkpt lat="49.63085" lon="4.96473">
        <ele>177.98</ele>
        <time>2020-05-28T14:05:47Z</time>
      </trkpt>
      <trkpt lat="49.63098" lon="4.96481">
        <ele>178.46</ele>
        <time>2020-05-28T14:06:01Z</time>
      </trkpt>
      <trkpt lat="49.63112" lon="4.96488">
        <ele>178.94</ele>
        <time>2020-05-28T14:06:15Z</time>
      </trkpt>
      <trkpt lat="49.63127" lon="4.96498">
        <ele>179.42</ele>
        <time>2020-05-28T14:06:29Z</time>
      </trkpt>
      <trkpt lat="49.6314" lon="4.96506">
        <ele>179.42</ele>
        <time>2020-05-28T14:06:45Z</time>
      </trkpt>
      <trkpt lat="49.63154" lon="4.96515">
        <ele>179.42</ele>
        <time>2020-05-28T14:07:00Z</time>
      </trkpt>
      <trkpt lat="49.63168" lon="4.96524">
        <ele>177.5</ele>
        <time>2020-05-28T14:07:15Z</time>
      </trkpt>
      <trkpt lat="49.63181" lon="4.96531">
        <ele>176.54</ele>
        <time>2020-05-28T14:07:27Z</time>
      </trkpt>
      <trkpt lat="49.63195" lon="4.9654">
        <ele>176.54</ele>
        <time>2020-05-28T14:07:40Z</time>
      </trkpt>
      <trkpt lat="49.63211" lon="4.9655">
        <ele>176.06</ele>
        <time>2020-05-28T14:07:54Z</time>
      </trkpt>
      <trkpt lat="49.63216" lon="4.96554">
        <ele>175.58</ele>
        <time>2020-05-28T14:08:02Z</time>
      </trkpt>
      <trkpt lat="49.63234" lon="4.96567">
        <ele>172.21</ele>
        <time>2020-05-28T14:08:19Z</time>
      </trkpt>
      <trkpt lat="49.63251" lon="4.96583">
        <ele>170.77</ele>
        <time>2020-05-28T14:08:36Z</time>
      </trkpt>
      <trkpt lat="49.63264" lon="4.96593">
        <ele>172.21</ele>
        <time>2020-05-28T14:08:51Z</time>
      </trkpt>
      <trkpt lat="49.63278" lon="4.96603">
        <ele>172.21</ele>
        <time>2020-05-28T14:09:06Z</time>
      </trkpt>
      <trkpt lat="49.6328" lon="4.96605">
        <ele>172.69</ele>
        <time>2020-05-28T14:09:09Z</time>
      </trkpt>
      <trkpt lat="49.63289" lon="4.96627">
        <ele>171.73</ele>
        <time>2020-05-28T14:09:26Z</time>
      </trkpt>
      <trkpt lat="49.63297" lon="4.96653">
        <ele>171.73</ele>
        <time>2020-05-28T14:09:42Z</time>
      </trkpt>
      <trkpt lat="49.63304" lon="4.96668">
        <ele>171.73</ele>
        <time>2020-05-28T14:09:55Z</time>
      </trkpt>
      <trkpt lat="49.63317" lon="4.96686">
        <ele>169.81</ele>
        <time>2020-05-28T14:10:12Z</time>
      </trkpt>
      <trkpt lat="49.63329" lon="4.96708">
        <ele>168.85</ele>
        <time>2020-05-28T14:10:28Z</time>
      </trkpt>
      <trkpt lat="49.63333" lon="4.96723">
        <ele>169.33</ele>
        <time>2020-05-28T14:10:41Z</time>
      </trkpt>
      <trkpt lat="49.63336" lon="4.96749">
        <ele>168.37</ele>
        <time>2020-05-28T14:10:55Z</time>
      </trkpt>
      <trkpt lat="49.63337" lon="4.96763">
        <ele>167.89</ele>
        <time>2020-05-28T14:11:06Z</time>
      </trkpt>
      <trkpt lat="49.63346" lon="4.96792">
        <ele>169.33</ele>
        <time>2020-05-28T14:11:23Z</time>
      </trkpt>
      <trkpt lat="49.63355" lon="4.96811">
        <ele>170.29</ele>
        <time>2020-05-28T14:11:40Z</time>
      </trkpt>
      <trkpt lat="49.63364" lon="4.96827">
        <ele>171.25</ele>
        <time>2020-05-28T14:11:55Z</time>
      </trkpt>
      <trkpt lat="49.63364" lon="4.96829">
        <ele>171.25</ele>
        <time>2020-05-28T14:12:05Z</time>
      </trkpt>
      <trkpt lat="49.63366" lon="4.9683">
        <ele>169.81</ele>
        <time>2020-05-28T14:12:16Z</time>
      </trkpt>
      <trkpt lat="49.63372" lon="4.96838">
        <ele>169.33</ele>
        <time>2020-05-28T14:12:27Z</time>
      </trkpt>
      <trkpt lat="49.63377" lon="4.96843">
        <ele>169.81</ele>
        <time>2020-05-28T14:12:33Z</time>
      </trkpt>
      <trkpt lat="49.63383" lon="4.96851">
        <ele>171.25</ele>
        <time>2020-05-28T14:12:41Z</time>
      </trkpt>
      <trkpt lat="49.63396" lon="4.96866">
        <ele>171.73</ele>
        <time>2020-05-28T14:12:57Z</time>
      </trkpt>
      <trkpt lat="49.63406" lon="4.96878">
        <ele>172.21</ele>
        <time>2020-05-28T14:13:10Z</time>
      </trkpt>
      <trkpt lat="49.63419" lon="4.96892">
        <ele>173.17</ele>
        <time>2020-05-28T14:13:25Z</time>
      </trkpt>
      <trkpt lat="49.63435" lon="4.96911">
        <ele>174.14</ele>
        <time>2020-05-28T14:13:39Z</time>
      </trkpt>
      <trkpt lat="49.6344" lon="4.96917">
        <ele>175.1</ele>
        <time>2020-05-28T14:13:50Z</time>
      </trkpt>
      <trkpt lat="49.6345" lon="4.96931">
        <ele>174.62</ele>
        <time>2020-05-28T14:14:02Z</time>
      </trkpt>
      <trkpt lat="49.6346" lon="4.96946">
        <ele>175.1</ele>
        <time>2020-05-28T14:14:16Z</time>
      </trkpt>
      <trkpt lat="49.63462" lon="4.96951">
        <ele>175.58</ele>
        <time>2020-05-28T14:14:22Z</time>
      </trkpt>
      <trkpt lat="49.63469" lon="4.9697">
        <ele>174.62</ele>
        <time>2020-05-28T14:14:35Z</time>
      </trkpt>
      <trkpt lat="49.63471" lon="4.96993">
        <ele>175.1</ele>
        <time>2020-05-28T14:14:50Z</time>
      </trkpt>
      <trkpt lat="49.63473" lon="4.97013">
        <ele>176.06</ele>
        <time>2020-05-28T14:15:04Z</time>
      </trkpt>
      <trkpt lat="49.63479" lon="4.97031">
        <ele>177.5</ele>
        <time>2020-05-28T14:15:16Z</time>
      </trkpt>
      <trkpt lat="49.63484" lon="4.97049">
        <ele>179.42</ele>
        <time>2020-05-28T14:15:30Z</time>
      </trkpt>
      <trkpt lat="49.6349" lon="4.9707">
        <ele>180.87</ele>
        <time>2020-05-28T14:15:44Z</time>
      </trkpt>
      <trkpt lat="49.63496" lon="4.97091">
        <ele>181.35</ele>
        <time>2020-05-28T14:15:58Z</time>
      </trkpt>
      <trkpt lat="49.63502" lon="4.97111">
        <ele>181.83</ele>
        <time>2020-05-28T14:16:12Z</time>
      </trkpt>
      <trkpt lat="49.63507" lon="4.97129">
        <ele>183.27</ele>
        <time>2020-05-28T14:16:25Z</time>
      </trkpt>
      <trkpt lat="49.63514" lon="4.97155">
        <ele>184.23</ele>
        <time>2020-05-28T14:16:40Z</time>
      </trkpt>
      <trkpt lat="49.6352" lon="4.97176">
        <ele>184.71</ele>
        <time>2020-05-28T14:16:54Z</time>
      </trkpt>
      <trkpt lat="49.63527" lon="4.972">
        <ele>185.19</ele>
        <time>2020-05-28T14:17:11Z</time>
      </trkpt>
      <trkpt lat="49.63534" lon="4.97222">
        <ele>186.63</ele>
        <time>2020-05-28T14:17:27Z</time>
      </trkpt>
      <trkpt lat="49.6354" lon="4.97246">
        <ele>188.08</ele>
        <time>2020-05-28T14:17:43Z</time>
      </trkpt>
      <trkpt lat="49.63547" lon="4.97268">
        <ele>188.08</ele>
        <time>2020-05-28T14:17:59Z</time>
      </trkpt>
      <trkpt lat="49.63551" lon="4.97285">
        <ele>186.63</ele>
        <time>2020-05-28T14:18:12Z</time>
      </trkpt>
      <trkpt lat="49.63558" lon="4.97305">
        <ele>186.63</ele>
        <time>2020-05-28T14:18:26Z</time>
      </trkpt>
      <trkpt lat="49.63563" lon="4.97323">
        <ele>187.11</ele>
        <time>2020-05-28T14:18:39Z</time>
      </trkpt>
      <trkpt lat="49.63567" lon="4.97332">
        <ele>186.63</ele>
        <time>2020-05-28T14:18:44Z</time>
      </trkpt>
      <trkpt lat="49.63577" lon="4.97346">
        <ele>190</ele>
        <time>2020-05-28T14:18:57Z</time>
      </trkpt>
      <trkpt lat="49.63597" lon="4.97367">
        <ele>186.63</ele>
        <time>2020-05-28T14:19:14Z</time>
      </trkpt>
      <trkpt lat="49.63608" lon="4.9738">
        <ele>184.71</ele>
        <time>2020-05-28T14:19:29Z</time>
      </trkpt>
      <trkpt lat="49.63623" lon="4.97399">
        <ele>183.27</ele>
        <time>2020-05-28T14:19:43Z</time>
      </trkpt>
      <trkpt lat="49.63639" lon="4.97418">
        <ele>184.71</ele>
        <time>2020-05-28T14:19:59Z</time>
      </trkpt>
      <trkpt lat="49.63647" lon="4.97432">
        <ele>186.63</ele>
        <time>2020-05-28T14:20:14Z</time>
      </trkpt>
      <trkpt lat="49.63648" lon="4.97441">
        <ele>186.63</ele>
        <time>2020-05-28T14:20:20Z</time>
      </trkpt>
      <trkpt lat="49.63642" lon="4.97462">
        <ele>184.71</ele>
        <time>2020-05-28T14:20:36Z</time>
      </trkpt>
      <trkpt lat="49.63641" lon="4.97482">
        <ele>182.31</ele>
        <time>2020-05-28T14:20:52Z</time>
      </trkpt>
      <trkpt lat="49.6364" lon="4.9749">
        <ele>181.83</ele>
        <time>2020-05-28T14:20:56Z</time>
      </trkpt>
      <trkpt lat="49.63642" lon="4.97522">
        <ele>181.83</ele>
        <time>2020-05-28T14:21:14Z</time>
      </trkpt>
      <trkpt lat="49.63644" lon="4.97541">
        <ele>178.94</ele>
        <time>2020-05-28T14:21:31Z</time>
      </trkpt>
      <trkpt lat="49.63645" lon="4.97573">
        <ele>177.5</ele>
        <time>2020-05-28T14:21:51Z</time>
      </trkpt>
      <trkpt lat="49.63646" lon="4.97598">
        <ele>173.66</ele>
        <time>2020-05-28T14:22:06Z</time>
      </trkpt>
      <trkpt lat="49.63642" lon="4.97618">
        <ele>171.73</ele>
        <time>2020-05-28T14:22:18Z</time>
      </trkpt>
      <trkpt lat="49.63635" lon="4.97635">
        <ele>170.29</ele>
        <time>2020-05-28T14:22:33Z</time>
      </trkpt>
      <trkpt lat="49.63632" lon="4.9764">
        <ele>169.81</ele>
        <time>2020-05-28T14:22:38Z</time>
      </trkpt>
      <trkpt lat="49.63627" lon="4.97646">
        <ele>169.81</ele>
        <time>2020-05-28T14:22:44Z</time>
      </trkpt>
      <trkpt lat="49.63617" lon="4.97657">
        <ele>166.45</ele>
        <time>2020-05-28T14:23:01Z</time>
      </trkpt>
      <trkpt lat="49.63607" lon="4.97668">
        <ele>167.41</ele>
        <time>2020-05-28T14:23:16Z</time>
      </trkpt>
      <trkpt lat="49.63596" lon="4.97676">
        <ele>165.96</ele>
        <time>2020-05-28T14:23:31Z</time>
      </trkpt>
      <trkpt lat="49.63591" lon="4.97682">
        <ele>165.96</ele>
        <time>2020-05-28T14:23:38Z</time>
      </trkpt>
      <trkpt lat="49.63584" lon="4.97687">
        <ele>166.93</ele>
        <time>2020-05-28T14:23:43Z</time>
      </trkpt>
      <trkpt lat="49.6357" lon="4.97701">
        <ele>173.66</ele>
        <time>2020-05-28T14:23:58Z</time>
      </trkpt>
      <trkpt lat="49.63554" lon="4.97717">
        <ele>178.94</ele>
        <time>2020-05-28T14:24:13Z</time>
      </trkpt>
      <trkpt lat="49.63542" lon="4.97733">
        <ele>180.87</ele>
        <time>2020-05-28T14:24:28Z</time>
      </trkpt>
      <trkpt lat="49.63535" lon="4.97751">
        <ele>183.27</ele>
        <time>2020-05-28T14:24:41Z</time>
      </trkpt>
      <trkpt lat="49.63527" lon="4.97767">
        <ele>188.56</ele>
        <time>2020-05-28T14:24:54Z</time>
      </trkpt>
      <trkpt lat="49.63515" lon="4.97779">
        <ele>191.44</ele>
        <time>2020-05-28T14:25:07Z</time>
      </trkpt>
      <trkpt lat="49.63507" lon="4.97788">
        <ele>191.92</ele>
        <time>2020-05-28T14:25:17Z</time>
      </trkpt>
      <trkpt lat="49.63496" lon="4.97803">
        <ele>190.96</ele>
        <time>2020-05-28T14:25:31Z</time>
      </trkpt>
      <trkpt lat="49.63485" lon="4.97817">
        <ele>189.52</ele>
        <time>2020-05-28T14:25:46Z</time>
      </trkpt>
      <trkpt lat="49.63477" lon="4.97835">
        <ele>187.11</ele>
        <time>2020-05-28T14:25:59Z</time>
      </trkpt>
      <trkpt lat="49.63469" lon="4.9785">
        <ele>181.83</ele>
        <time>2020-05-28T14:26:12Z</time>
      </trkpt>
      <trkpt lat="49.63464" lon="4.97859">
        <ele>182.31</ele>
        <time>2020-05-28T14:26:20Z</time>
      </trkpt>
      <trkpt lat="49.63459" lon="4.97866">
        <ele>183.75</ele>
        <time>2020-05-28T14:26:25Z</time>
      </trkpt>
      <trkpt lat="49.6345" lon="4.97878">
        <ele>187.59</ele>
        <time>2020-05-28T14:26:36Z</time>
      </trkpt>
      <trkpt lat="49.63437" lon="4.97888">
        <ele>190</ele>
        <time>2020-05-28T14:26:50Z</time>
      </trkpt>
      <trkpt lat="49.63427" lon="4.97901">
        <ele>188.08</ele>
        <time>2020-05-28T14:27:04Z</time>
      </trkpt>
      <trkpt lat="49.63414" lon="4.97907">
        <ele>184.71</ele>
        <time>2020-05-28T14:27:18Z</time>
      </trkpt>
      <trkpt lat="49.63403" lon="4.97916">
        <ele>181.35</ele>
        <time>2020-05-28T14:27:31Z</time>
      </trkpt>
      <trkpt lat="49.63392" lon="4.97925">
        <ele>179.9</ele>
        <time>2020-05-28T14:27:43Z</time>
      </trkpt>
      <trkpt lat="49.63389" lon="4.97926">
        <ele>179.42</ele>
        <time>2020-05-28T14:27:47Z</time>
      </trkpt>
      <trkpt lat="49.63384" lon="4.97939">
        <ele>179.42</ele>
        <time>2020-05-28T14:27:58Z</time>
      </trkpt>
      <trkpt lat="49.63392" lon="4.97959">
        <ele>177.5</ele>
        <time>2020-05-28T14:28:11Z</time>
      </trkpt>
      <trkpt lat="49.63399" lon="4.97976">
        <ele>174.62</ele>
        <time>2020-05-28T14:28:23Z</time>
      </trkpt>
      <trkpt lat="49.63407" lon="4.97995">
        <ele>174.14</ele>
        <time>2020-05-28T14:28:37Z</time>
      </trkpt>
      <trkpt lat="49.63415" lon="4.98009">
        <ele>174.62</ele>
        <time>2020-05-28T14:28:49Z</time>
      </trkpt>
      <trkpt lat="49.63422" lon="4.98023">
        <ele>176.54</ele>
        <time>2020-05-28T14:29:01Z</time>
      </trkpt>
      <trkpt lat="49.63431" lon="4.98036">
        <ele>177.02</ele>
        <time>2020-05-28T14:29:14Z</time>
      </trkpt>
      <trkpt lat="49.63442" lon="4.98045">
        <ele>180.87</ele>
        <time>2020-05-28T14:29:26Z</time>
      </trkpt>
      <trkpt lat="49.6345" lon="4.98052">
        <ele>180.87</ele>
        <time>2020-05-28T14:29:40Z</time>
      </trkpt>
      <trkpt lat="49.63451" lon="4.9805">
        <ele>180.38</ele>
        <time>2020-05-28T14:29:54Z</time>
      </trkpt>
      <trkpt lat="49.63484" lon="4.98032">
        <ele>177.98</ele>
        <time>2020-05-28T14:52:24Z</time>
      </trkpt>
      <trkpt lat="49.63464" lon="4.98027">
        <ele>187.11</ele>
        <time>2020-05-28T14:52:40Z</time>
      </trkpt>
      <trkpt lat="49.63461" lon="4.9803">
        <ele>181.83</ele>
        <time>2020-05-28T14:53:08Z</time>
      </trkpt>
      <trkpt lat="49.63458" lon="4.98029">
        <ele>179.9</ele>
        <time>2020-05-28T14:53:32Z</time>
      </trkpt>
    </trkseg>
  </trk>
</gpx>